Observation data for Dozier on 03/09/2018      Previous  Date  Next       Current Mesonet Observations  Soil Data  Daily Summary Page  Observations in Plain Language
KDO1 090600Z 17007KT 12/M06 A2987 RMK A01 T01161058  RH  029%=      5-min Rain = 0
KDO1 090601Z 17007KT 12/M06 A2987 RMK A01 T01161058  RH  029%=      5-min Rain = 0
KDO1 090602Z 17006KT 12/M06 A2987 RMK A01 T01151058  RH  029%=      5-min Rain = 0
KDO1 090603Z 17006KT 12/M06 A2987 RMK A01 T01151058  RH  029%=      5-min Rain = 0
KDO1 090604Z 17006KT 11/M06 A2987 RMK A01 T01141058  RH  029%=      5-min Rain = 0
KDO1 090605Z 17005KT 11/M06 A2987 RMK A01 T01131058  RH  030%=      5-min Rain = 0
KDO1 090606Z 18006KT 11/M06 A2987 RMK A01 T01121058  RH  030%=      5-min Rain = 0
KDO1 090607Z 17006KT 11/M06 A2987 RMK A01 T01121058  RH  030%=      5-min Rain = 0
KDO1 090608Z 17006KT 11/M06 A2987 RMK A01 T01121058  RH  030%=      5-min Rain = 0
KDO1 090609Z 18006KT 11/M06 A2987 RMK A01 T01111058  RH  030%=      5-min Rain = 0
KDO1 090610Z 17007KT 11/M06 A2987 RMK A01 T01101059  RH  030%=      5-min Rain = 0
KDO1 090611Z 17006KT 11/M06 A2987 RMK A01 T01091059  RH  030%=      5-min Rain = 0
KDO1 090612Z 17006KT 11/M06 A2987 RMK A01 T01091058  RH  030%=      5-min Rain = 0
KDO1 090613Z 17007KT 11/M06 A2987 RMK A01 T01091058  RH  030%=      5-min Rain = 0
KDO1 090614Z 16007KT 11/M06 A2987 RMK A01 T01091059  RH  030%=      5-min Rain = 0
KDO1 090615Z 17006KT 11/M06 A2987 RMK A01 T01091058  RH  030%=      5-min Rain = 0
KDO1 090616Z 17006KT 11/M06 A2987 RMK A01 T01081059  RH  030%=      5-min Rain = 0
KDO1 090617Z 17007KT 11/M06 A2987 RMK A01 T01081059  RH  030%=      5-min Rain = 0
KDO1 090618Z 17007KT 11/M06 A2987 RMK A01 T01081058  RH  031%=      5-min Rain = 0
KDO1 090619Z 17008KT 11/M06 A2987 RMK A01 T01071059  RH  031%=      5-min Rain = 0
KDO1 090620Z 17007KT 11/M06 A2987 RMK A01 T01071059  RH  031%=      5-min Rain = 0
KDO1 090621Z 17007KT 11/M06 A2987 RMK A01 T01071059  RH  031%=      5-min Rain = 0
KDO1 090622Z 17008KT 11/M06 A2986 RMK A01 T01071059  RH  031%=      5-min Rain = 0
KDO1 090623Z 17006KT 11/M06 A2987 RMK A01 T01071059  RH  031%=      5-min Rain = 0
KDO1 090624Z 17007KT 11/M06 A2986 RMK A01 T01071059  RH  031%=      5-min Rain = 0
KDO1 090625Z 17007KT 11/M06 A2986 RMK A01 T01061059  RH  031%=      5-min Rain = 0
KDO1 090626Z 18008KT 11/M06 A2986 RMK A01 T01061059  RH  031%=      5-min Rain = 0
KDO1 090627Z 18007KT 11/M06 A2986 RMK A01 T01061059  RH  031%=      5-min Rain = 0
KDO1 090628Z 18007KT 11/M06 A2986 RMK A01 T01071059  RH  031%=      5-min Rain = 0
KDO1 090629Z 17007KT 11/M06 A2986 RMK A01 T01071059  RH  031%=      5-min Rain = 0
KDO1 090630Z 18007KT 11/M06 A2986 RMK A01 T01071059  RH  031%=      5-min Rain = 0
KDO1 090631Z 18008KT 11/M06 A2986 RMK A01 T01061059  RH  031%=      5-min Rain = 0
KDO1 090632Z 18007KT 11/M06 A2986 RMK A01 T01061059  RH  031%=      5-min Rain = 0
KDO1 090633Z 20004KT 11/M06 A2986 RMK A01 T01061059  RH  031%=      5-min Rain = 0
KDO1 090634Z 20005KT 10/M06 A2986 RMK A01 T01031060  RH  031%=      5-min Rain = 0
KDO1 090635Z 19005KT 10/M06 A2986 RMK A01 T00991061  RH  032%=      5-min Rain = 0
KDO1 090636Z 19005KT 10/M06 A2986 RMK A01 T00971061  RH  032%=      5-min Rain = 0
KDO1 090637Z 19005KT 10/M06 A2986 RMK A01 T00951061  RH  033%=      5-min Rain = 0
KDO1 090638Z 19005KT 09/M06 A2986 RMK A01 T00941061  RH  033%=      5-min Rain = 0
KDO1 090639Z 20005KT 09/M06 A2986 RMK A01 T00931061  RH  033%=      5-min Rain = 0
KDO1 090640Z 19005KT 09/M06 A2986 RMK A01 T00931061  RH  033%=      5-min Rain = 0
KDO1 090641Z 20006KT 09/M06 A2986 RMK A01 T00921061  RH  033%=      5-min Rain = 0
KDO1 090642Z 20005KT 09/M06 A2986 RMK A01 T00921061  RH  033%=      5-min Rain = 0
KDO1 090643Z 21004KT 09/M06 A2986 RMK A01 T00921061  RH  033%=      5-min Rain = 0
KDO1 090644Z 20005KT 09/M06 A2986 RMK A01 T00921061  RH  033%=      5-min Rain = 0
KDO1 090645Z 20005KT 09/M06 A2986 RMK A01 T00921061  RH  033%=      5-min Rain = 0
KDO1 090646Z 20005KT 09/M06 A2986 RMK A01 T00921062  RH  033%=      5-min Rain = 0
KDO1 090647Z 20004KT 09/M06 A2986 RMK A01 T00921062  RH  033%=      5-min Rain = 0
KDO1 090648Z 19005KT 09/M06 A2986 RMK A01 T00921062  RH  033%=      5-min Rain = 0
KDO1 090649Z 19005KT 09/M06 A2986 RMK A01 T00921062  RH  033%=      5-min Rain = 0
KDO1 090650Z 19005KT 09/M06 A2986 RMK A01 T00921062  RH  033%=      5-min Rain = 0
KDO1 090651Z 19005KT 09/M06 A2986 RMK A01 T00931062  RH  033%=      5-min Rain = 0
KDO1 090652Z 19005KT 09/M06 A2986 RMK A01 T00931061  RH  033%=      5-min Rain = 0
KDO1 090653Z 19005KT 09/M06 A2986 RMK A01 T00941061  RH  033%=      5-min Rain = 0
KDO1 090654Z 19005KT 09/M06 A2986 RMK A01 T00941062  RH  033%=      5-min Rain = 0
KDO1 090655Z 19005KT 09/M06 A2986 RMK A01 T00941061  RH  033%=      5-min Rain = 0
KDO1 090656Z 18006KT 10/M06 A2986 RMK A01 T00951061  RH  033%=      5-min Rain = 0
KDO1 090657Z 18006KT 10/M06 A2986 RMK A01 T00951061  RH  033%=      5-min Rain = 0
KDO1 090658Z 18005KT 10/M06 A2986 RMK A01 T00961061  RH  033%=      5-min Rain = 0
KDO1 090659Z 18006KT 10/M06 A2986 RMK A01 T00961061  RH  033%=      5-min Rain = 0
KDO1 090700Z 18006KT 10/M06 A2986 RMK A01 T00961061  RH  033%=      5-min Rain = 0
KDO1 090701Z 18006KT 10/M06 A2986 RMK A01 T00961061  RH  033%=      5-min Rain = 0
KDO1 090702Z 18006KT 10/M06 A2986 RMK A01 T00951061  RH  033%=      5-min Rain = 0
KDO1 090703Z 18006KT 09/M06 A2986 RMK A01 T00941062  RH  033%=      5-min Rain = 0
KDO1 090704Z 18006KT 09/M06 A2986 RMK A01 T00941061  RH  033%=      5-min Rain = 0
KDO1 090705Z 18006KT 09/M06 A2986 RMK A01 T00941061  RH  033%=      5-min Rain = 0
KDO1 090706Z 18007KT 09/M06 A2986 RMK A01 T00941061  RH  033%=      5-min Rain = 0
KDO1 090707Z 18007KT 09/M06 A2986 RMK A01 T00941061  RH  033%=      5-min Rain = 0
KDO1 090708Z 18007KT 09/M06 A2986 RMK A01 T00931061  RH  033%=      5-min Rain = 0
KDO1 090709Z 17007KT 09/M06 A2985 RMK A01 T00931061  RH  033%=      5-min Rain = 0
KDO1 090710Z 17007KT 09/M06 A2985 RMK A01 T00921061  RH  033%=      5-min Rain = 0
KDO1 090711Z 17007KT 09/M06 A2985 RMK A01 T00921061  RH  033%=      5-min Rain = 0
KDO1 090712Z 17007KT 09/M06 A2985 RMK A01 T00921061  RH  033%=      5-min Rain = 0
KDO1 090713Z 18008KT 09/M06 A2985 RMK A01 T00921061  RH  033%=      5-min Rain = 0
KDO1 090714Z 18007KT 09/M06 A2985 RMK A01 T00911061  RH  034%=      5-min Rain = 0
KDO1 090715Z 18007KT 09/M06 A2985 RMK A01 T00911061  RH  034%=      5-min Rain = 0
KDO1 090716Z 18007KT 09/M06 A2985 RMK A01 T00911061  RH  034%=      5-min Rain = 0
KDO1 090717Z 18007KT 09/M06 A2985 RMK A01 T00901061  RH  034%=      5-min Rain = 0
KDO1 090718Z 18007KT 09/M06 A2985 RMK A01 T00891061  RH  034%=      5-min Rain = 0
KDO1 090719Z 18007KT 09/M06 A2985 RMK A01 T00881061  RH  034%=      5-min Rain = 0
KDO1 090720Z 18007KT 09/M06 A2985 RMK A01 T00871061  RH  034%=      5-min Rain = 0
KDO1 090721Z 18007KT 09/M06 A2985 RMK A01 T00871061  RH  034%=      5-min Rain = 0
KDO1 090722Z 17007KT 09/M06 A2985 RMK A01 T00871061  RH  034%=      5-min Rain = 0
KDO1 090723Z 17007KT 09/M06 A2985 RMK A01 T00871061  RH  034%=      5-min Rain = 0
KDO1 090724Z 17007KT 09/M06 A2985 RMK A01 T00871061  RH  034%=      5-min Rain = 0
KDO1 090725Z 17007KT 09/M06 A2985 RMK A01 T00871061  RH  034%=      5-min Rain = 0
KDO1 090726Z 17007KT 09/M06 A2985 RMK A01 T00871061  RH  035%=      5-min Rain = 0
KDO1 090727Z 17007KT 09/M06 A2985 RMK A01 T00861061  RH  035%=      5-min Rain = 0
KDO1 090728Z 17007KT 09/M06 A2985 RMK A01 T00861061  RH  035%=      5-min Rain = 0
KDO1 090729Z 17006KT 09/M06 A2985 RMK A01 T00851061  RH  035%=      5-min Rain = 0
KDO1 090730Z 17006KT 09/M06 A2985 RMK A01 T00851061  RH  035%=      5-min Rain = 0
KDO1 090731Z 17006KT 09/M06 A2985 RMK A01 T00851061  RH  035%=      5-min Rain = 0
KDO1 090732Z 17006KT 09/M06 A2985 RMK A01 T00851061  RH  035%=      5-min Rain = 0
KDO1 090733Z 17006KT 09/M06 A2985 RMK A01 T00851061  RH  035%=      5-min Rain = 0
KDO1 090734Z 17006KT 08/M06 A2985 RMK A01 T00841061  RH  035%=      5-min Rain = 0
KDO1 090735Z 17006KT 08/M06 A2985 RMK A01 T00831061  RH  035%=      5-min Rain = 0
KDO1 090736Z 17006KT 08/M06 A2985 RMK A01 T00831061  RH  035%=      5-min Rain = 0
KDO1 090737Z 17006KT 08/M06 A2985 RMK A01 T00831061  RH  035%=      5-min Rain = 0
KDO1 090738Z 17006KT 08/M06 A2985 RMK A01 T00831061  RH  035%=      5-min Rain = 0
KDO1 090739Z 17006KT 08/M06 A2985 RMK A01 T00831061  RH  035%=      5-min Rain = 0
KDO1 090740Z 17006KT 08/M06 A2985 RMK A01 T00811062  RH  036%=      5-min Rain = 0
KDO1 090741Z 17006KT 08/M06 A2985 RMK A01 T00811062  RH  036%=      5-min Rain = 0
KDO1 090742Z 17005KT 08/M06 A2985 RMK A01 T00801062  RH  036%=      5-min Rain = 0
KDO1 090743Z 17005KT 08/M06 A2985 RMK A01 T00801062  RH  036%=      5-min Rain = 0
KDO1 090744Z 17005KT 08/M06 A2985 RMK A01 T00791063  RH  036%=      5-min Rain = 0
KDO1 090745Z 17005KT 08/M06 A2985 RMK A01 T00771064  RH  036%=      5-min Rain = 0
KDO1 090746Z 18004KT 08/M06 A2985 RMK A01 T00761063  RH  037%=      5-min Rain = 0
KDO1 090747Z 18004KT 08/M06 A2985 RMK A01 T00751063  RH  037%=      5-min Rain = 0
KDO1 090748Z 18004KT 08/M06 A2985 RMK A01 T00751063  RH  037%=      5-min Rain = 0
KDO1 090749Z 18004KT 08/M06 A2985 RMK A01 T00751063  RH  037%=      5-min Rain = 0
KDO1 090750Z 19004KT 07/M06 A2985 RMK A01 T00741063  RH  037%=      5-min Rain = 0
KDO1 090751Z 19004KT 07/M06 A2985 RMK A01 T00741063  RH  037%=      5-min Rain = 0
KDO1 090752Z 18004KT 07/M06 A2985 RMK A01 T00741063  RH  037%=      5-min Rain = 0
KDO1 090753Z 19004KT 08/M06 A2985 RMK A01 T00751062  RH  037%=      5-min Rain = 0
KDO1 090754Z 18004KT 08/M06 A2985 RMK A01 T00751062  RH  037%=      5-min Rain = 0
KDO1 090755Z 18004KT 08/M06 A2985 RMK A01 T00751062  RH  037%=      5-min Rain = 0
KDO1 090756Z 19004KT 08/M06 A2985 RMK A01 T00761062  RH  037%=      5-min Rain = 0
KDO1 090757Z 19004KT 08/M06 A2985 RMK A01 T00761062  RH  037%=      5-min Rain = 0
KDO1 090758Z 18003KT 08/M06 A2985 RMK A01 T00761062  RH  037%=      5-min Rain = 0
KDO1 090759Z 18004KT 08/M06 A2985 RMK A01 T00761062  RH  037%=      5-min Rain = 0
KDO1 090800Z 18004KT 08/M06 A2985 RMK A01 T00761062  RH  037%=      5-min Rain = 0
KDO1 090801Z 18003KT 08/M06 A2985 RMK A01 T00761062  RH  037%=      5-min Rain = 0
KDO1 090802Z 18003KT 08/M06 A2984 RMK A01 T00761062  RH  037%=      5-min Rain = 0
KDO1 090803Z 18004KT 08/M06 A2984 RMK A01 T00761062  RH  037%=      5-min Rain = 0
KDO1 090804Z 17004KT 08/M06 A2984 RMK A01 T00761061  RH  037%=      5-min Rain = 0
KDO1 090805Z 17004KT 08/M06 A2984 RMK A01 T00761062  RH  037%=      5-min Rain = 0
KDO1 090806Z 17004KT 08/M06 A2984 RMK A01 T00771062  RH  037%=      5-min Rain = 0
KDO1 090807Z 17004KT 08/M06 A2984 RMK A01 T00761062  RH  037%=      5-min Rain = 0
KDO1 090808Z 17004KT 08/M06 A2984 RMK A01 T00761062  RH  037%=      5-min Rain = 0
KDO1 090809Z 17004KT 08/M06 A2984 RMK A01 T00761062  RH  037%=      5-min Rain = 0
KDO1 090810Z 17004KT 08/M06 A2984 RMK A01 T00761062  RH  037%=      5-min Rain = 0
KDO1 090811Z 18004KT 08/M06 A2984 RMK A01 T00761062  RH  037%=      5-min Rain = 0
KDO1 090812Z 18004KT 08/M06 A2984 RMK A01 T00771061  RH  037%=      5-min Rain = 0
KDO1 090813Z 18004KT 08/M06 A2984 RMK A01 T00761062  RH  037%=      5-min Rain = 0
KDO1 090814Z 19004KT 08/M06 A2984 RMK A01 T00761062  RH  037%=      5-min Rain = 0
KDO1 090815Z 19004KT 08/M06 A2984 RMK A01 T00751062  RH  037%=      5-min Rain = 0
KDO1 090816Z 19004KT 08/M06 A2984 RMK A01 T00751062  RH  037%=      5-min Rain = 0
KDO1 090817Z 19004KT 08/M06 A2984 RMK A01 T00751062  RH  037%=      5-min Rain = 0
KDO1 090818Z 19004KT 07/M06 A2984 RMK A01 T00741062  RH  037%=      5-min Rain = 0
KDO1 090819Z 19004KT 07/M06 A2984 RMK A01 T00741062  RH  037%=      5-min Rain = 0
KDO1 090820Z 18004KT 07/M06 A2984 RMK A01 T00741062  RH  037%=      5-min Rain = 0
KDO1 090821Z 18004KT 07/M06 A2984 RMK A01 T00741062  RH  037%=      5-min Rain = 0
KDO1 090822Z 18004KT 07/M06 A2984 RMK A01 T00741062  RH  037%=      5-min Rain = 0
KDO1 090823Z 18004KT 07/M06 A2984 RMK A01 T00741062  RH  037%=      5-min Rain = 0
KDO1 090824Z 18004KT 07/M06 A2984 RMK A01 T00741062  RH  038%=      5-min Rain = 0
KDO1 090825Z 17004KT 07/M06 A2984 RMK A01 T00741062  RH  038%=      5-min Rain = 0
KDO1 090826Z 17005KT 07/M06 A2984 RMK A01 T00741062  RH  037%=      5-min Rain = 0
KDO1 090827Z 17005KT 07/M06 A2984 RMK A01 T00741062  RH  037%=      5-min Rain = 0
KDO1 090828Z 17005KT 08/M06 A2984 RMK A01 T00751061  RH  037%=      5-min Rain = 0
KDO1 090829Z 17005KT 08/M06 A2983 RMK A01 T00751061  RH  037%=      5-min Rain = 0
KDO1 090830Z 17005KT 08/M06 A2983 RMK A01 T00751061  RH  037%=      5-min Rain = 0
KDO1 090831Z 17005KT 08/M06 A2983 RMK A01 T00751061  RH  037%=      5-min Rain = 0
KDO1 090832Z 17005KT 08/M06 A2983 RMK A01 T00751061  RH  037%=      5-min Rain = 0
KDO1 090833Z 17005KT 08/M06 A2983 RMK A01 T00751061  RH  037%=      5-min Rain = 0
KDO1 090834Z 17005KT 08/M06 A2983 RMK A01 T00751061  RH  037%=      5-min Rain = 0
KDO1 090835Z 17005KT 07/M06 A2983 RMK A01 T00741062  RH  037%=      5-min Rain = 0
KDO1 090836Z 17004KT 07/M06 A2983 RMK A01 T00741062  RH  038%=      5-min Rain = 0
KDO1 090837Z 17004KT 07/M06 A2983 RMK A01 T00741062  RH  038%=      5-min Rain = 0
KDO1 090838Z 18004KT 07/M06 A2983 RMK A01 T00731062  RH  038%=      5-min Rain = 0
KDO1 090839Z 17005KT 07/M06 A2983 RMK A01 T00731061  RH  038%=      5-min Rain = 0
KDO1 090840Z 18005KT 07/M06 A2983 RMK A01 T00731061  RH  038%=      5-min Rain = 0
KDO1 090841Z 18004KT 07/M06 A2983 RMK A01 T00731062  RH  038%=      5-min Rain = 0
KDO1 090842Z 18004KT 07/M06 A2983 RMK A01 T00721062  RH  038%=      5-min Rain = 0
KDO1 090843Z 18004KT 07/M06 A2983 RMK A01 T00711062  RH  038%=      5-min Rain = 0
KDO1 090844Z 18004KT 07/M06 A2983 RMK A01 T00701062  RH  038%=      5-min Rain = 0
KDO1 090845Z 18004KT 07/M06 A2983 RMK A01 T00701062  RH  038%=      5-min Rain = 0
KDO1 090846Z 18004KT 07/M06 A2983 RMK A01 T00701062  RH  039%=      5-min Rain = 0
KDO1 090847Z 18004KT 07/M06 A2983 RMK A01 T00701062  RH  039%=      5-min Rain = 0
KDO1 090848Z 18003KT 07/M06 A2983 RMK A01 T00691062  RH  039%=      5-min Rain = 0
KDO1 090849Z 19004KT 07/M06 A2983 RMK A01 T00691062  RH  039%=      5-min Rain = 0
KDO1 090850Z 19004KT 07/M06 A2983 RMK A01 T00681062  RH  039%=      5-min Rain = 0
KDO1 090851Z 19003KT 07/M06 A2983 RMK A01 T00681062  RH  039%=      5-min Rain = 0
KDO1 090852Z 19004KT 07/M06 A2983 RMK A01 T00681061  RH  039%=      5-min Rain = 0
KDO1 090853Z 18004KT 07/M06 A2983 RMK A01 T00681061  RH  039%=      5-min Rain = 0
KDO1 090854Z 19004KT 07/M06 A2983 RMK A01 T00681061  RH  039%=      5-min Rain = 0
KDO1 090855Z 19004KT 07/M06 A2983 RMK A01 T00681061  RH  039%=      5-min Rain = 0
KDO1 090856Z 19004KT 07/M06 A2983 RMK A01 T00681061  RH  039%=      5-min Rain = 0
KDO1 090857Z 19003KT 07/M06 A2983 RMK A01 T00681061  RH  039%=      5-min Rain = 0
KDO1 090858Z 18004KT 07/M06 A2983 RMK A01 T00681061  RH  039%=      5-min Rain = 0
KDO1 090859Z 18004KT 07/M06 A2983 RMK A01 T00681061  RH  039%=      5-min Rain = 0
KDO1 090900Z 18004KT 07/M06 A2983 RMK A01 T00681061  RH  039%=      5-min Rain = 0
KDO1 090901Z 18004KT 07/M06 A2983 RMK A01 T00681061  RH  039%=      5-min Rain = 0
KDO1 090902Z 18004KT 07/M06 A2982 RMK A01 T00681061  RH  039%=      5-min Rain = 0
KDO1 090903Z 18004KT 07/M06 A2982 RMK A01 T00681061  RH  039%=      5-min Rain = 0
KDO1 090904Z 18004KT 07/M06 A2982 RMK A01 T00681061  RH  039%=      5-min Rain = 0
KDO1 090905Z 18004KT 07/M06 A2982 RMK A01 T00671061  RH  039%=      5-min Rain = 0
KDO1 090906Z 18004KT 07/M06 A2982 RMK A01 T00671061  RH  039%=      5-min Rain = 0
KDO1 090907Z 18004KT 07/M06 A2982 RMK A01 T00671061  RH  040%=      5-min Rain = 0
KDO1 090908Z 18004KT 07/M06 A2982 RMK A01 T00661061  RH  040%=      5-min Rain = 0
KDO1 090909Z 18005KT 07/M06 A2982 RMK A01 T00661062  RH  040%=      5-min Rain = 0
KDO1 090910Z 18005KT 07/M06 A2982 RMK A01 T00651062  RH  040%=      5-min Rain = 0
KDO1 090911Z 18005KT 07/M06 A2982 RMK A01 T00651062  RH  040%=      5-min Rain = 0
KDO1 090912Z 18005KT 07/M06 A2982 RMK A01 T00651061  RH  040%=      5-min Rain = 0
KDO1 090913Z 18005KT 07/M06 A2982 RMK A01 T00651061  RH  040%=      5-min Rain = 0
KDO1 090914Z 18005KT 06/M06 A2982 RMK A01 T00641061  RH  040%=      5-min Rain = 0
KDO1 090915Z 18005KT 06/M06 A2982 RMK A01 T00641061  RH  040%=      5-min Rain = 0
KDO1 090916Z 18005KT 06/M06 A2982 RMK A01 T00641061  RH  040%=      5-min Rain = 0
KDO1 090917Z 18005KT 06/M06 A2982 RMK A01 T00631061  RH  040%=      5-min Rain = 0
KDO1 090918Z 18005KT 06/M06 A2981 RMK A01 T00631061  RH  041%=      5-min Rain = 0
KDO1 090919Z 18005KT 06/M06 A2981 RMK A01 T00631061  RH  041%=      5-min Rain = 0
KDO1 090920Z 18005KT 06/M06 A2981 RMK A01 T00631061  RH  041%=      5-min Rain = 0
KDO1 090921Z 18005KT 06/M06 A2981 RMK A01 T00621061  RH  041%=      5-min Rain = 0
KDO1 090922Z 18005KT 06/M06 A2981 RMK A01 T00621062  RH  041%=      5-min Rain = 0
KDO1 090923Z 18005KT 06/M06 A2981 RMK A01 T00621061  RH  041%=      5-min Rain = 0
KDO1 090924Z 17005KT 06/M06 A2981 RMK A01 T00621061  RH  041%=      5-min Rain = 0
KDO1 090925Z 17006KT 06/M06 A2981 RMK A01 T00621061  RH  041%=      5-min Rain = 0
KDO1 090926Z 17006KT 06/M06 A2981 RMK A01 T00621061  RH  041%=      5-min Rain = 0
KDO1 090927Z 17006KT 06/M06 A2981 RMK A01 T00621060  RH  041%=      5-min Rain = 0
KDO1 090928Z 17006KT 06/M06 A2981 RMK A01 T00621061  RH  041%=      5-min Rain = 0
KDO1 090929Z 17006KT 06/M06 A2981 RMK A01 T00621060  RH  041%=      5-min Rain = 0
KDO1 090930Z 17005KT 06/M06 A2981 RMK A01 T00621060  RH  041%=      5-min Rain = 0
KDO1 090931Z 17005KT 06/M06 A2981 RMK A01 T00621060  RH  041%=      5-min Rain = 0
KDO1 090932Z 18005KT 06/M06 A2981 RMK A01 T00621060  RH  041%=      5-min Rain = 0
KDO1 090933Z 17005KT 06/M06 A2981 RMK A01 T00611060  RH  041%=      5-min Rain = 0
KDO1 090934Z 17005KT 06/M06 A2981 RMK A01 T00611060  RH  041%=      5-min Rain = 0
KDO1 090935Z 17005KT 06/M06 A2981 RMK A01 T00611060  RH  042%=      5-min Rain = 0
KDO1 090936Z 17005KT 06/M06 A2981 RMK A01 T00611060  RH  042%=      5-min Rain = 0
KDO1 090937Z 17005KT 06/M06 A2981 RMK A01 T00611060  RH  042%=      5-min Rain = 0
KDO1 090938Z 18005KT 06/M06 A2981 RMK A01 T00611059  RH  042%=      5-min Rain = 0
KDO1 090939Z 19004KT 06/M06 A2981 RMK A01 T00601060  RH  042%=      5-min Rain = 0
KDO1 090940Z 19004KT 06/M06 A2981 RMK A01 T00601060  RH  042%=      5-min Rain = 0
KDO1 090941Z 19003KT 06/M06 A2981 RMK A01 T00591061  RH  042%=      5-min Rain = 0
KDO1 090942Z 19003KT 06/M06 A2981 RMK A01 T00581061  RH  042%=      5-min Rain = 0
KDO1 090943Z 20003KT 06/M06 A2981 RMK A01 T00571061  RH  042%=      5-min Rain = 0
KDO1 090944Z 19003KT 06/M06 A2981 RMK A01 T00561061  RH  043%=      5-min Rain = 0
KDO1 090945Z 19003KT 06/M06 A2981 RMK A01 T00561061  RH  043%=      5-min Rain = 0
KDO1 090946Z 19003KT 06/M06 A2981 RMK A01 T00561061  RH  043%=      5-min Rain = 0
KDO1 090947Z 19003KT 06/M06 A2981 RMK A01 T00561061  RH  043%=      5-min Rain = 0
KDO1 090948Z 19003KT 06/M06 A2981 RMK A01 T00571060  RH  043%=      5-min Rain = 0
KDO1 090949Z 19003KT 06/M06 A2981 RMK A01 T00571061  RH  043%=      5-min Rain = 0
KDO1 090950Z 20003KT 06/M06 A2981 RMK A01 T00571061  RH  043%=      5-min Rain = 0
KDO1 090951Z 20003KT 06/M06 A2981 RMK A01 T00571061  RH  042%=      5-min Rain = 0
KDO1 090952Z 20003KT 06/M06 A2981 RMK A01 T00571060  RH  043%=      5-min Rain = 0
KDO1 090953Z 20003KT 06/M06 A2981 RMK A01 T00571060  RH  043%=      5-min Rain = 0
KDO1 090954Z 21003KT 06/M06 A2981 RMK A01 T00571060  RH  043%=      5-min Rain = 0
KDO1 090955Z 22002KT 06/M06 A2981 RMK A01 T00581060  RH  043%=      5-min Rain = 0
KDO1 090956Z 23002KT 06/M06 A2981 RMK A01 T00581059  RH  042%=      5-min Rain = 0
KDO1 090957Z 22002KT 06/M06 A2981 RMK A01 T00581060  RH  042%=      5-min Rain = 0
KDO1 090958Z 21002KT 06/M06 A2981 RMK A01 T00581060  RH  042%=      5-min Rain = 0
KDO1 090959Z 21002KT 06/M06 A2981 RMK A01 T00581060  RH  042%=      5-min Rain = 0
KDO1 091000Z 21002KT 06/M06 A2981 RMK A01 T00581060  RH  042%=      5-min Rain = 0
KDO1 091001Z 21002KT 06/M06 A2981 RMK A01 T00581060  RH  042%=      5-min Rain = 0
KDO1 091002Z 21002KT 06/M06 A2981 RMK A01 T00581060  RH  043%=      5-min Rain = 0
KDO1 091003Z 21003KT 06/M06 A2981 RMK A01 T00581059  RH  043%=      5-min Rain = 0
KDO1 091004Z 21002KT 06/M06 A2981 RMK A01 T00581059  RH  043%=      5-min Rain = 0
KDO1 091005Z 23002KT 06/M06 A2981 RMK A01 T00581059  RH  043%=      5-min Rain = 0
KDO1 091006Z 23002KT 06/M06 A2981 RMK A01 T00581059  RH  043%=      5-min Rain = 0
KDO1 091007Z 23002KT 06/M06 A2981 RMK A01 T00581059  RH  043%=      5-min Rain = 0
KDO1 091008Z 22002KT 06/M06 A2981 RMK A01 T00581059  RH  043%=      5-min Rain = 0
KDO1 091009Z 20003KT 06/M06 A2981 RMK A01 T00581059  RH  043%=      5-min Rain = 0
KDO1 091010Z 20003KT 06/M06 A298 RMK A01 T00581059  RH  043%=      5-min Rain = 0
KDO1 091011Z 21003KT 06/M06 A2981 RMK A01 T00591058  RH  043%=      5-min Rain = 0
KDO1 091012Z 21002KT 06/M06 A2981 RMK A01 T00601058  RH  042%=      5-min Rain = 0
KDO1 091013Z 20002KT 06/M06 A298 RMK A01 T00601058  RH  042%=      5-min Rain = 0
KDO1 091014Z 20002KT 06/M06 A298 RMK A01 T00601059  RH  042%=      5-min Rain = 0
KDO1 091015Z 19003KT 06/M06 A298 RMK A01 T00591059  RH  042%=      5-min Rain = 0
KDO1 091016Z 19002KT 06/M06 A298 RMK A01 T00591059  RH  042%=      5-min Rain = 0
KDO1 091017Z 19002KT 06/M06 A298 RMK A01 T00591059  RH  042%=      5-min Rain = 0
KDO1 091018Z 18003KT 06/M06 A298 RMK A01 T00601059  RH  042%=      5-min Rain = 0
KDO1 091019Z 18003KT 06/M06 A298 RMK A01 T00601059  RH  042%=      5-min Rain = 0
KDO1 091020Z 18003KT 06/M06 A298 RMK A01 T00601059  RH  042%=      5-min Rain = 0
KDO1 091021Z 18003KT 06/M06 A298 RMK A01 T00601059  RH  042%=      5-min Rain = 0
KDO1 091022Z 19002KT 06/M06 A298 RMK A01 T00611059  RH  042%=      5-min Rain = 0
KDO1 091023Z 19002KT 06/M06 A298 RMK A01 T00601059  RH  042%=      5-min Rain = 0
KDO1 091024Z 19002KT 06/M06 A298 RMK A01 T00601059  RH  042%=      5-min Rain = 0
KDO1 091025Z 18002KT 06/M06 A298 RMK A01 T00601059  RH  042%=      5-min Rain = 0
KDO1 091026Z 18002KT 06/M06 A298 RMK A01 T00591060  RH  042%=      5-min Rain = 0
KDO1 091027Z 18002KT 06/M06 A298 RMK A01 T00591059  RH  042%=      5-min Rain = 0
KDO1 091028Z 19001KT 06/M06 A298 RMK A01 T00581060  RH  042%=      5-min Rain = 0
KDO1 091029Z 20001KT 06/M06 A298 RMK A01 T00581060  RH  043%=      5-min Rain = 0
KDO1 091030Z 20000KT 06/M06 A298 RMK A01 T00581060  RH  043%=      5-min Rain = 0
KDO1 091031Z 00000KT 06/M06 A298 RMK A01 T00571059  RH  043%=      5-min Rain = 0
KDO1 091032Z 00000KT 06/M06 A298 RMK A01 T00571059  RH  043%=      5-min Rain = 0
KDO1 091033Z 00000KT 06/M06 A298 RMK A01 T00571059  RH  043%=      5-min Rain = 0
KDO1 091034Z 17000KT 06/M06 A2979 RMK A01 T00571059  RH  043%=      5-min Rain = 0
KDO1 091035Z 18000KT 06/M06 A2979 RMK A01 T00561060  RH  043%=      5-min Rain = 0
KDO1 091036Z 17000KT 06/M06 A2979 RMK A01 T00561060  RH  043%=      5-min Rain = 0
KDO1 091037Z 00000KT 06/M06 A2979 RMK A01 T00551059  RH  043%=      5-min Rain = 0
KDO1 091038Z 00000KT 06/M06 A2979 RMK A01 T00551059  RH  044%=      5-min Rain = 0
KDO1 091039Z 00000KT 06/M06 A2979 RMK A01 T00551059  RH  044%=      5-min Rain = 0
KDO1 091040Z 00000KT 06/M06 A2979 RMK A01 T00551059  RH  044%=      5-min Rain = 0
KDO1 091041Z 00000KT 05/M06 A2979 RMK A01 T00541059  RH  044%=      5-min Rain = 0
KDO1 091042Z 00000KT 05/M06 A2979 RMK A01 T00541059  RH  044%=      5-min Rain = 0
KDO1 091043Z 00000KT 05/M06 A2979 RMK A01 T00541060  RH  044%=      5-min Rain = 0
KDO1 091044Z 00000KT 06/M06 A2979 RMK A01 T00551059  RH  044%=      5-min Rain = 0
KDO1 091045Z 16000KT 05/M06 A2979 RMK A01 T00541059  RH  044%=      5-min Rain = 0
KDO1 091046Z 15002KT 05/M06 A2979 RMK A01 T00541059  RH  044%=      5-min Rain = 0
KDO1 091047Z 16002KT 05/M06 A2979 RMK A01 T00541058  RH  044%=      5-min Rain = 0
KDO1 091048Z 16002KT 05/M06 A2979 RMK A01 T00541058  RH  044%=      5-min Rain = 0
KDO1 091049Z 17002KT 05/M06 A2979 RMK A01 T00541058  RH  044%=      5-min Rain = 0
KDO1 091050Z 18002KT 05/M06 A2979 RMK A01 T00541058  RH  044%=      5-min Rain = 0
KDO1 091051Z 19002KT 05/M06 A2979 RMK A01 T00541058  RH  044%=      5-min Rain = 0
KDO1 091052Z 19002KT 05/M06 A2979 RMK A01 T00541058  RH  044%=      5-min Rain = 0
KDO1 091053Z 19001KT 05/M06 A2979 RMK A01 T00541058  RH  044%=      5-min Rain = 0
KDO1 091054Z 18002KT 05/M06 A2979 RMK A01 T00531058  RH  044%=      5-min Rain = 0
KDO1 091055Z 18002KT 05/M06 A2979 RMK A01 T00531058  RH  044%=      5-min Rain = 0
KDO1 091056Z 19002KT 05/M06 A2979 RMK A01 T00531058  RH  045%=      5-min Rain = 0
KDO1 091057Z 19002KT 05/M06 A2979 RMK A01 T00531058  RH  045%=      5-min Rain = 0
KDO1 091058Z 19002KT 05/M06 A2979 RMK A01 T00531058  RH  045%=      5-min Rain = 0
KDO1 091059Z 19002KT 05/M06 A2979 RMK A01 T00521058  RH  045%=      5-min Rain = 0
KDO1 091100Z 19002KT 05/M06 A2979 RMK A01 T00511058  RH  045%=      5-min Rain = 0
KDO1 091101Z 19002KT 05/M06 A2979 RMK A01 T00511058  RH  045%=      5-min Rain = 0
KDO1 091102Z 19002KT 05/M06 A2979 RMK A01 T00511058  RH  045%=      5-min Rain = 0
KDO1 091103Z 18003KT 05/M06 A2979 RMK A01 T00501058  RH  045%=      5-min Rain = 0
KDO1 091104Z 18003KT 05/M06 A2979 RMK A01 T00501058  RH  046%=      5-min Rain = 0
KDO1 091105Z 18002KT 05/M06 A2979 RMK A01 T00501058  RH  046%=      5-min Rain = 0
KDO1 091106Z 19002KT 05/M06 A2979 RMK A01 T00491058  RH  046%=      5-min Rain = 0
KDO1 091107Z 19001KT 05/M06 A2979 RMK A01 T00491059  RH  046%=      5-min Rain = 0
KDO1 091108Z 19001KT 05/M06 A2979 RMK A01 T00481059  RH  046%=      5-min Rain = 0
KDO1 091109Z 19001KT 05/M06 A2979 RMK A01 T00481059  RH  046%=      5-min Rain = 0
KDO1 091110Z 19002KT 05/M06 A2979 RMK A01 T00471059  RH  046%=      5-min Rain = 0
KDO1 091111Z 19002KT 05/M06 A2978 RMK A01 T00471058  RH  046%=      5-min Rain = 0
KDO1 091112Z 17003KT 05/M06 A2978 RMK A01 T00471058  RH  046%=      5-min Rain = 0
KDO1 091113Z 17003KT 05/M06 A2978 RMK A01 T00471058  RH  046%=      5-min Rain = 0
KDO1 091114Z 17003KT 05/M06 A2978 RMK A01 T00471058  RH  047%=      5-min Rain = 0
KDO1 091115Z 18003KT 05/M06 A2978 RMK A01 T00461058  RH  047%=      5-min Rain = 0
KDO1 091116Z 18003KT 05/M06 A2978 RMK A01 T00471058  RH  047%=      5-min Rain = 0
KDO1 091117Z 18003KT 05/M06 A2978 RMK A01 T00471058  RH  047%=      5-min Rain = 0
KDO1 091118Z 18003KT 05/M06 A2978 RMK A01 T00471058  RH  047%=      5-min Rain = 0
KDO1 091119Z 17003KT 05/M06 A2978 RMK A01 T00471057  RH  047%=      5-min Rain = 0
KDO1 091120Z 18002KT 05/M06 A2978 RMK A01 T00461058  RH  047%=      5-min Rain = 0
KDO1 091121Z 18001KT 05/M06 A2978 RMK A01 T00461058  RH  047%=      5-min Rain = 0
KDO1 091122Z 18001KT 05/M06 A2978 RMK A01 T00451058  RH  047%=      5-min Rain = 0
KDO1 091123Z 18002KT 05/M06 A2978 RMK A01 T00451058  RH  047%=      5-min Rain = 0
KDO1 091124Z 18001KT 04/M06 A2978 RMK A01 T00441058  RH  047%=      5-min Rain = 0
KDO1 091125Z 18001KT 04/M06 A2978 RMK A01 T00441059  RH  047%=      5-min Rain = 0
KDO1 091126Z 19002KT 04/M06 A2978 RMK A01 T00441058  RH  047%=      5-min Rain = 0
KDO1 091127Z 19002KT 04/M06 A2978 RMK A01 T00431059  RH  047%=      5-min Rain = 0
KDO1 091128Z 20002KT 04/M06 A2978 RMK A01 T00431059  RH  048%=      5-min Rain = 0
KDO1 091129Z 19003KT 04/M06 A2978 RMK A01 T00431059  RH  048%=      5-min Rain = 0
KDO1 091130Z 19003KT 04/M06 A2978 RMK A01 T00431059  RH  048%=      5-min Rain = 0
KDO1 091131Z 19003KT 04/M06 A2978 RMK A01 T00421058  RH  048%=      5-min Rain = 0
KDO1 091132Z 19003KT 04/M06 A2978 RMK A01 T00431058  RH  048%=      5-min Rain = 0
KDO1 091133Z 19004KT 04/M06 A2978 RMK A01 T00431057  RH  048%=      5-min Rain = 0
KDO1 091134Z 19004KT 04/M06 A2978 RMK A01 T00431057  RH  048%=      5-min Rain = 0
KDO1 091135Z 19004KT 04/M06 A2978 RMK A01 T00431057  RH  048%=      5-min Rain = 0
KDO1 091136Z 19004KT 04/M06 A2978 RMK A01 T00431057  RH  048%=      5-min Rain = 0
KDO1 091137Z 19004KT 04/M06 A2978 RMK A01 T00431057  RH  048%=      5-min Rain = 0
KDO1 091138Z 19004KT 04/M06 A2978 RMK A01 T00441055  RH  049%=      5-min Rain = 0
KDO1 091139Z 18004KT 04/M05 A2978 RMK A01 T00441054  RH  049%=      5-min Rain = 0
KDO1 091140Z 18004KT 04/M05 A2978 RMK A01 T00441054  RH  049%=      5-min Rain = 0
KDO1 091141Z 18004KT 04/M05 A2978 RMK A01 T00441054  RH  049%=      5-min Rain = 0
KDO1 091142Z 18004KT 04/M05 A2978 RMK A01 T00441054  RH  049%=      5-min Rain = 0
KDO1 091143Z 18004KT 04/M05 A2978 RMK A01 T00441054  RH  049%=      5-min Rain = 0
KDO1 091144Z 18005KT 04/M05 A2978 RMK A01 T00441054  RH  049%=      5-min Rain = 0
KDO1 091145Z 18005KT 04/M06 A2978 RMK A01 T00441055  RH  049%=      5-min Rain = 0
KDO1 091146Z 18005KT 04/M06 A2978 RMK A01 T00441055  RH  048%=      5-min Rain = 0
KDO1 091147Z 18005KT 04/M06 A2977 RMK A01 T00441056  RH  048%=      5-min Rain = 0
KDO1 091148Z 18005KT 04/M06 A2977 RMK A01 T00431056  RH  049%=      5-min Rain = 0
KDO1 091149Z 18005KT 04/M06 A2977 RMK A01 T00421056  RH  049%=      5-min Rain = 0
KDO1 091150Z 19005KT 04/M06 A2977 RMK A01 T00411055  RH  049%=      5-min Rain = 0
KDO1 091151Z 19004KT 04/M06 A2977 RMK A01 T00401055  RH  050%=      5-min Rain = 0
KDO1 091152Z 19004KT 04/M06 A2977 RMK A01 T00391055  RH  050%=      5-min Rain = 0
KDO1 091153Z 19003KT 04/M05 A2977 RMK A01 T00381054  RH  051%=      5-min Rain = 0
KDO1 091154Z 19003KT 04/M05 A2977 RMK A01 T00371054  RH  051%=      5-min Rain = 0
KDO1 091155Z 18004KT 04/M05 A2977 RMK A01 T00361054  RH  052%=      5-min Rain = 0
KDO1 091156Z 19004KT 04/M05 A2977 RMK A01 T00361053  RH  052%=      5-min Rain = 0
KDO1 091157Z 21003KT 04/M05 A2977 RMK A01 T00361052  RH  052%=      5-min Rain = 0
KDO1 091158Z 18004KT 04/M05 A2977 RMK A01 T00361051  RH  053%=      5-min Rain = 0
KDO1 091159Z 19004KT 04/M05 A2977 RMK A01 T00371051  RH  053%=      5-min Rain = 0
KDO1 091200Z 19004KT 04/M05 A2977 RMK A01 T00371051  RH  053%=      5-min Rain = 0
KDO1 091201Z 19004KT 04/M05 A2977 RMK A01 T00371051  RH  053%=      5-min Rain = 0
KDO1 091202Z 19003KT 04/M05 A2977 RMK A01 T00371051  RH  053%=      5-min Rain = 0
KDO1 091203Z 20004KT 04/M05 A2977 RMK A01 T00361052  RH  053%=      5-min Rain = 0
KDO1 091204Z 20003KT 04/M05 A2977 RMK A01 T00351052  RH  053%=      5-min Rain = 0
KDO1 091205Z 19003KT 04/M05 A2977 RMK A01 T00351051  RH  053%=      5-min Rain = 0
KDO1 091206Z 19003KT 03/M05 A2977 RMK A01 T00341051  RH  054%=      5-min Rain = 0
KDO1 091207Z 20003KT 03/M05 A2977 RMK A01 T00341050  RH  054%=      5-min Rain = 0
KDO1 091208Z 18005KT 03/M05 A2977 RMK A01 T00341049  RH  054%=      5-min Rain = 0
KDO1 091209Z 18005KT 03/M05 A2977 RMK A01 T00341049  RH  054%=      5-min Rain = 0
KDO1 091210Z 18006KT 03/M05 A2977 RMK A01 T00341049  RH  054%=      5-min Rain = 0
KDO1 091211Z 18006KT 04/M05 A2977 RMK A01 T00351049  RH  054%=      5-min Rain = 0
KDO1 091212Z 18005KT 04/M05 A2977 RMK A01 T00351049  RH  054%=      5-min Rain = 0
KDO1 091213Z 18003KT 04/M05 A2977 RMK A01 T00351049  RH  054%=      5-min Rain = 0
KDO1 091214Z 18003KT 04/M05 A2977 RMK A01 T00351049  RH  054%=      5-min Rain = 0
KDO1 091215Z 18003KT 04/M05 A2977 RMK A01 T00351048  RH  055%=      5-min Rain = 0
KDO1 091216Z 18003KT 04/M05 A2977 RMK A01 T00361046  RH  055%=      5-min Rain = 0
KDO1 091217Z 18003KT 04/M04 A2977 RMK A01 T00371044  RH  055%=      5-min Rain = 0
KDO1 091218Z 18003KT 04/M04 A2977 RMK A01 T00391043  RH  055%=      5-min Rain = 0
KDO1 091219Z 18003KT 04/M04 A2977 RMK A01 T00401043  RH  055%=      5-min Rain = 0
KDO1 091220Z 19003KT 04/M04 A2977 RMK A01 T00411043  RH  054%=      5-min Rain = 0
KDO1 091221Z 19004KT 04/M04 A2977 RMK A01 T00411043  RH  054%=      5-min Rain = 0
KDO1 091222Z 20003KT 04/M04 A2977 RMK A01 T00421042  RH  054%=      5-min Rain = 0
KDO1 091223Z 21003KT 04/M04 A2977 RMK A01 T00431041  RH  054%=      5-min Rain = 0
KDO1 091224Z 22002KT 04/M04 A2978 RMK A01 T00441041  RH  054%=      5-min Rain = 0
KDO1 091225Z 24001KT 04/M04 A2978 RMK A01 T00441040  RH  054%=      5-min Rain = 0
KDO1 091226Z 23000KT 04/M04 A2978 RMK A01 T00441042  RH  054%=      5-min Rain = 0
KDO1 091227Z 20000KT 04/M04 A2978 RMK A01 T00431042  RH  054%=      5-min Rain = 0
KDO1 091228Z 18002KT 04/M04 A2978 RMK A01 T00431041  RH  054%=      5-min Rain = 0
KDO1 091229Z 17003KT 04/M04 A2978 RMK A01 T00431039  RH  055%=      5-min Rain = 0
KDO1 091230Z 17003KT 05/M04 A2977 RMK A01 T00451037  RH  056%=      5-min Rain = 0
KDO1 091231Z 16002KT 05/M04 A2977 RMK A01 T00461036  RH  055%=      5-min Rain = 0
KDO1 091232Z 16001KT 05/M04 A2977 RMK A01 T00471038  RH  054%=      5-min Rain = 0
KDO1 091233Z 17002KT 05/M04 A2977 RMK A01 T00451042  RH  053%=      5-min Rain = 0
KDO1 091234Z 17003KT 04/M04 A2977 RMK A01 T00431042  RH  054%=      5-min Rain = 0
KDO1 091235Z 18003KT 04/M04 A2977 RMK A01 T00421041  RH  055%=      5-min Rain = 0
KDO1 091236Z 20003KT 04/M04 A2977 RMK A01 T00421040  RH  055%=      5-min Rain = 0
KDO1 091237Z 20003KT 04/M04 A2977 RMK A01 T00421040  RH  055%=      5-min Rain = 0
KDO1 091238Z 20004KT 04/M04 A2977 RMK A01 T00421039  RH  056%=      5-min Rain = 0
KDO1 091239Z 20004KT 04/M04 A2977 RMK A01 T00421039  RH  056%=      5-min Rain = 0
KDO1 091240Z 21004KT 04/M04 A2977 RMK A01 T00421039  RH  055%=      5-min Rain = 0
KDO1 091241Z 21004KT 04/M04 A2977 RMK A01 T00401042  RH  055%=      5-min Rain = 0
KDO1 091242Z 22004KT 04/M04 A2977 RMK A01 T00381042  RH  056%=      5-min Rain = 0
KDO1 091243Z 22004KT 04/M04 A2977 RMK A01 T00381041  RH  056%=      5-min Rain = 0
KDO1 091244Z 23002KT 04/M04 A2977 RMK A01 T00381040  RH  057%=      5-min Rain = 0
KDO1 091245Z 23002KT 04/M04 A2978 RMK A01 T00381040  RH  057%=      5-min Rain = 0
KDO1 091246Z 23002KT 04/M04 A2978 RMK A01 T00381038  RH  058%=      5-min Rain = 0
KDO1 091247Z 22002KT 04/M04 A2978 RMK A01 T00391037  RH  058%=      5-min Rain = 0
KDO1 091248Z 22002KT 04/M04 A2978 RMK A01 T00391036  RH  058%=      5-min Rain = 0
KDO1 091249Z 21003KT 04/M04 A2978 RMK A01 T00401036  RH  058%=      5-min Rain = 0
KDO1 091250Z 21002KT 04/M04 A2978 RMK A01 T00401035  RH  058%=      5-min Rain = 0
KDO1 091251Z 21002KT 04/M03 A2978 RMK A01 T00411034  RH  058%=      5-min Rain = 0
KDO1 091252Z 20003KT 04/M03 A2977 RMK A01 T00411034  RH  058%=      5-min Rain = 0
KDO1 091253Z 20003KT 04/M03 A2977 RMK A01 T00421034  RH  058%=      5-min Rain = 0
KDO1 091254Z 20003KT 04/M03 A2977 RMK A01 T00421034  RH  058%=      5-min Rain = 0
KDO1 091255Z 21003KT 04/M03 A2977 RMK A01 T00431034  RH  057%=      5-min Rain = 0
KDO1 091256Z 21002KT 04/M03 A2977 RMK A01 T00431034  RH  057%=      5-min Rain = 0
KDO1 091257Z 22002KT 04/M03 A2977 RMK A01 T00421034  RH  057%=      5-min Rain = 0
KDO1 091258Z 21002KT 04/M03 A2977 RMK A01 T00431034  RH  058%=      5-min Rain = 0
KDO1 091259Z 21002KT 04/M03 A2977 RMK A01 T00431033  RH  058%=      5-min Rain = 0
KDO1 091300Z 21002KT 04/M03 A2977 RMK A01 T00431033  RH  058%=      5-min Rain = 0
KDO1 091301Z 21003KT 04/M03 A2977 RMK A01 T00431033  RH  058%=      5-min Rain = 0
KDO1 091302Z 21003KT 04/M03 A2977 RMK A01 T00431032  RH  058%=      5-min Rain = 0
KDO1 091303Z 21002KT 04/M03 A2977 RMK A01 T00441032  RH  058%=      5-min Rain = 0
KDO1 091304Z 21002KT 04/M03 A2977 RMK A01 T00441032  RH  058%=      5-min Rain = 0
KDO1 091305Z 21001KT 04/M03 A2978 RMK A01 T00441032  RH  058%=      5-min Rain = 0
KDO1 091306Z 21000KT 04/M03 A2978 RMK A01 T00431032  RH  058%=      5-min Rain = 0
KDO1 091307Z 21000KT 04/M03 A2978 RMK A01 T00431032  RH  058%=      5-min Rain = 0
KDO1 091308Z 21001KT 04/M03 A2978 RMK A01 T00441032  RH  058%=      5-min Rain = 0
KDO1 091309Z 20001KT 04/M03 A2978 RMK A01 T00431033  RH  058%=      5-min Rain = 0
KDO1 091310Z 20001KT 04/M03 A2978 RMK A01 T00441032  RH  058%=      5-min Rain = 0
KDO1 091311Z 20001KT 04/M03 A2978 RMK A01 T00441032  RH  058%=      5-min Rain = 0
KDO1 091312Z 20001KT 04/M03 A2978 RMK A01 T00441032  RH  058%=      5-min Rain = 0
KDO1 091313Z 21001KT 04/M03 A2978 RMK A01 T00441033  RH  057%=      5-min Rain = 0
KDO1 091314Z 19001KT 04/M03 A2977 RMK A01 T00441032  RH  058%=      5-min Rain = 0
KDO1 091315Z 19002KT 04/M03 A2977 RMK A01 T00441032  RH  058%=      5-min Rain = 0
KDO1 091316Z 19002KT 05/M03 A2977 RMK A01 T00461030  RH  058%=      5-min Rain = 0
KDO1 091317Z 19001KT 05/M03 A2977 RMK A01 T00471030  RH  058%=      5-min Rain = 0
KDO1 091318Z 19001KT 05/M03 A2977 RMK A01 T00481030  RH  057%=      5-min Rain = 0
KDO1 091319Z 00000KT 05/M03 A2977 RMK A01 T00481030  RH  057%=      5-min Rain = 0
KDO1 091320Z 00000KT 05/M03 A2978 RMK A01 T00491031  RH  056%=      5-min Rain = 0
KDO1 091321Z 00000KT 05/M03 A2978 RMK A01 T00491030  RH  056%=      5-min Rain = 0
KDO1 091322Z 00000KT 05/M03 A2978 RMK A01 T00481031  RH  056%=      5-min Rain = 0
KDO1 091323Z 24000KT 05/M03 A2978 RMK A01 T00481031  RH  056%=      5-min Rain = 0
KDO1 091324Z 25001KT 05/M03 A2978 RMK A01 T00471033  RH  056%=      5-min Rain = 0
KDO1 091325Z 26001KT 05/M03 A2978 RMK A01 T00461033  RH  056%=      5-min Rain = 0
KDO1 091326Z 28002KT 05/M04 A2978 RMK A01 T00451035  RH  056%=      5-min Rain = 0
KDO1 091327Z 28002KT 04/M04 A2978 RMK A01 T00431036  RH  056%=      5-min Rain = 0
KDO1 091328Z 28002KT 04/M04 A2978 RMK A01 T00411040  RH  055%=      5-min Rain = 0
KDO1 091329Z 25001KT 04/M04 A2978 RMK A01 T00391043  RH  055%=      5-min Rain = 0
KDO1 091330Z 23001KT 04/M04 A2978 RMK A01 T00371041  RH  057%=      5-min Rain = 0
KDO1 091331Z 22001KT 04/M04 A2978 RMK A01 T00371036  RH  059%=      5-min Rain = 0
KDO1 091332Z 23001KT 04/M03 A2978 RMK A01 T00391032  RH  060%=      5-min Rain = 0
KDO1 091333Z 24001KT 04/M03 A2978 RMK A01 T00431029  RH  059%=      5-min Rain = 0
KDO1 091334Z 24001KT 05/M03 A2978 RMK A01 T00461028  RH  059%=      5-min Rain = 0
KDO1 091335Z 24000KT 05/M03 A2978 RMK A01 T00481027  RH  058%=      5-min Rain = 0
KDO1 091336Z 23001KT 05/M03 A2978 RMK A01 T00501027  RH  058%=      5-min Rain = 0
KDO1 091337Z 23001KT 05/M03 A2978 RMK A01 T00511027  RH  057%=      5-min Rain = 0
KDO1 091338Z 22002KT 05/M03 A2978 RMK A01 T00521026  RH  057%=      5-min Rain = 0
KDO1 091339Z 21002KT 05/M03 A2978 RMK A01 T00521026  RH  057%=      5-min Rain = 0
KDO1 091340Z 19000KT 05/M03 A2978 RMK A01 T00531027  RH  056%=      5-min Rain = 0
KDO1 091341Z 00000KT 05/M03 A2978 RMK A01 T00511034  RH  054%=      5-min Rain = 0
KDO1 091342Z 00000KT 04/M04 A2979 RMK A01 T00441038  RH  055%=      5-min Rain = 0
KDO1 091343Z 18000KT 04/M04 A2978 RMK A01 T00411037  RH  057%=      5-min Rain = 0
KDO1 091344Z 18002KT 04/M04 A2978 RMK A01 T00401037  RH  057%=      5-min Rain = 0
KDO1 091345Z 20001KT 04/M04 A2978 RMK A01 T00401037  RH  057%=      5-min Rain = 0
KDO1 091346Z 21001KT 04/M04 A2978 RMK A01 T00391037  RH  057%=      5-min Rain = 0
KDO1 091347Z 21002KT 04/M04 A2978 RMK A01 T00401037  RH  057%=      5-min Rain = 0
KDO1 091348Z 21002KT 04/M04 A2978 RMK A01 T00401036  RH  058%=      5-min Rain = 0
KDO1 091349Z 20002KT 04/M03 A2978 RMK A01 T00411034  RH  058%=      5-min Rain = 0
KDO1 091350Z 19003KT 04/M03 A2978 RMK A01 T00421031  RH  059%=      5-min Rain = 0
KDO1 091351Z 19002KT 05/M03 A2978 RMK A01 T00451030  RH  058%=      5-min Rain = 0
KDO1 091352Z 19001KT 05/M03 A2978 RMK A01 T00461030  RH  058%=      5-min Rain = 0
KDO1 091353Z 20000KT 05/M03 A2978 RMK A01 T00471032  RH  057%=      5-min Rain = 0
KDO1 091354Z 17001KT 05/M03 A2978 RMK A01 T00481032  RH  056%=      5-min Rain = 0
KDO1 091355Z 16000KT 05/M03 A2978 RMK A01 T00481032  RH  056%=      5-min Rain = 0
KDO1 091356Z 00000KT 05/M03 A2978 RMK A01 T00481034  RH  055%=      5-min Rain = 0
KDO1 091357Z 00000KT 05/M04 A2978 RMK A01 T00471035  RH  055%=      5-min Rain = 0
KDO1 091358Z 00000KT 05/M04 A2978 RMK A01 T00461035  RH  056%=      5-min Rain = 0
KDO1 091359Z 00000KT 05/M04 A2978 RMK A01 T00461035  RH  056%=      5-min Rain = 0
KDO1 091400Z 00000KT 05/M03 A2978 RMK A01 T00471033  RH  056%=      5-min Rain = 0
KDO1 091401Z 08001KT 05/M03 A2978 RMK A01 T00491031  RH  056%=      5-min Rain = 0
KDO1 091402Z 06002KT 05/M03 A2978 RMK A01 T00511030  RH  056%=      5-min Rain = 0
KDO1 091403Z 04002KT 05/M03 A2978 RMK A01 T00521031  RH  055%=      5-min Rain = 0
KDO1 091404Z 05001KT 05/M03 A2978 RMK A01 T00521030  RH  055%=      5-min Rain = 0
KDO1 091405Z 05001KT 05/M03 A2978 RMK A01 T00521030  RH  055%=      5-min Rain = 0
KDO1 091406Z 00000KT 05/M03 A2978 RMK A01 T00531029  RH  055%=      5-min Rain = 0
KDO1 091407Z 00000KT 06/M03 A2978 RMK A01 T00561027  RH  055%=      5-min Rain = 0
KDO1 091408Z 00000KT 06/M03 A2978 RMK A01 T00581026  RH  055%=      5-min Rain = 0
KDO1 091409Z 00000KT 06/M03 A2978 RMK A01 T00601026  RH  054%=      5-min Rain = 0
KDO1 091410Z 00000KT 06/M03 A2978 RMK A01 T00611026  RH  054%=      5-min Rain = 0
KDO1 091411Z 00000KT 06/M02 A2978 RMK A01 T00631024  RH  054%=      5-min Rain = 0
KDO1 091412Z 00000KT 07/M02 A2978 RMK A01 T00651024  RH  053%=      5-min Rain = 0
KDO1 091413Z 15000KT 07/M02 A2978 RMK A01 T00681023  RH  052%=      5-min Rain = 0
KDO1 091414Z 13001KT 07/M02 A2978 RMK A01 T00701022  RH  052%=      5-min Rain = 0
KDO1 091415Z 10001KT 07/M02 A2978 RMK A01 T00721022  RH  051%=      5-min Rain = 0
KDO1 091416Z 12001KT 07/M02 A2978 RMK A01 T00731023  RH  050%=      5-min Rain = 0
KDO1 091417Z 13001KT 07/M02 A2978 RMK A01 T00731024  RH  050%=      5-min Rain = 0
KDO1 091418Z 11001KT 07/M02 A2978 RMK A01 T00731024  RH  050%=      5-min Rain = 0
KDO1 091419Z 12001KT 07/M03 A2978 RMK A01 T00721025  RH  050%=      5-min Rain = 0
KDO1 091420Z 12001KT 07/M03 A2978 RMK A01 T00721026  RH  050%=      5-min Rain = 0
KDO1 091421Z 12001KT 07/M03 A2978 RMK A01 T00711027  RH  050%=      5-min Rain = 0
KDO1 091422Z 13001KT 07/M03 A2978 RMK A01 T00711027  RH  050%=      5-min Rain = 0
KDO1 091423Z 11000KT 07/M03 A2978 RMK A01 T00711027  RH  050%=      5-min Rain = 0
KDO1 091424Z 11000KT 07/M03 A2978 RMK A01 T00701026  RH  050%=      5-min Rain = 0
KDO1 091425Z 00000KT 07/M03 A2978 RMK A01 T00701027  RH  050%=      5-min Rain = 0
KDO1 091426Z 18001KT 07/M03 A2978 RMK A01 T00711026  RH  050%=      5-min Rain = 0
KDO1 091427Z 16000KT 07/M03 A2978 RMK A01 T00721025  RH  050%=      5-min Rain = 0
KDO1 091428Z 13001KT 07/M03 A2978 RMK A01 T00741025  RH  050%=      5-min Rain = 0
KDO1 091429Z 17001KT 07/M02 A2978 RMK A01 T00741024  RH  050%=      5-min Rain = 0
KDO1 091430Z 18000KT 08/M02 A2978 RMK A01 T00751024  RH  050%=      5-min Rain = 0
KDO1 091431Z 12000KT 08/M02 A2978 RMK A01 T00751023  RH  050%=      5-min Rain = 0
KDO1 091432Z 20002KT 08/M02 A2978 RMK A01 T00761023  RH  050%=      5-min Rain = 0
KDO1 091433Z 20001KT 08/M02 A2978 RMK A01 T00771023  RH  049%=      5-min Rain = 0
KDO1 091434Z 21001KT 08/M02 A2978 RMK A01 T00771023  RH  049%=      5-min Rain = 0
KDO1 091435Z 22001KT 08/M02 A2978 RMK A01 T00771022  RH  049%=      5-min Rain = 0
KDO1 091436Z 25000KT 08/M02 A2978 RMK A01 T00781020  RH  050%=      5-min Rain = 0
KDO1 091437Z 02000KT 08/M02 A2978 RMK A01 T00801020  RH  049%=      5-min Rain = 0
KDO1 091438Z 25001KT 08/M02 A2978 RMK A01 T00821018  RH  049%=      5-min Rain = 0
KDO1 091439Z 24002KT 08/M02 A2978 RMK A01 T00841019  RH  048%=      5-min Rain = 0
KDO1 091440Z 22001KT 09/M02 A2978 RMK A01 T00851020  RH  047%=      5-min Rain = 0
KDO1 091441Z 23002KT 09/M02 A2978 RMK A01 T00871019  RH  047%=      5-min Rain = 0
KDO1 091442Z 25003KT 09/M02 A2978 RMK A01 T00891019  RH  047%=      5-min Rain = 0
KDO1 091443Z 25004KT 09/M02 A2978 RMK A01 T00921018  RH  046%=      5-min Rain = 0
KDO1 091444Z 23005KT 10/M02 A2978 RMK A01 T00971020  RH  044%=      5-min Rain = 0
KDO1 091445Z 24006KT 10/M02 A2978 RMK A01 T01001024  RH  042%=      5-min Rain = 0
KDO1 091446Z 24006KT 10/M03 A2978 RMK A01 T01021026  RH  041%=      5-min Rain = 0
KDO1 091447Z 23005KT 10/M03 A2978 RMK A01 T01031027  RH  040%=      5-min Rain = 0
KDO1 091448Z 24005KT 10/M03 A2978 RMK A01 T01031027  RH  040%=      5-min Rain = 0
KDO1 091449Z 24004KT 10/M03 A2978 RMK A01 T01041026  RH  040%=      5-min Rain = 0
KDO1 091450Z 24005KT 11/M03 A2978 RMK A01 T01051026  RH  040%=      5-min Rain = 0
KDO1 091451Z 28005KT 11/M03 A2978 RMK A01 T01071025  RH  040%=      5-min Rain = 0
KDO1 091452Z 27005KT 11/M03 A2978 RMK A01 T01081029  RH  038%=      5-min Rain = 0
KDO1 091453Z 26005KT 11/M03 A2978 RMK A01 T01081030  RH  038%=      5-min Rain = 0
KDO1 091454Z 25004KT 11/M03 A2978 RMK A01 T01081029  RH  038%=      5-min Rain = 0
KDO1 091455Z 26004KT 11/M03 A2978 RMK A01 T01091028  RH  038%=      5-min Rain = 0
KDO1 091456Z 27003KT 11/M03 A2978 RMK A01 T01101029  RH  038%=      5-min Rain = 0
KDO1 091457Z 25003KT 11/M03 A2978 RMK A01 T01111029  RH  037%=      5-min Rain = 0
KDO1 091458Z 25004KT 11/M03 A2978 RMK A01 T01121030  RH  037%=      5-min Rain = 0
KDO1 091459Z 26003KT 11/M03 A2978 RMK A01 T01121031  RH  036%=      5-min Rain = 0
KDO1 091500Z 28003KT 11/M03 A2978 RMK A01 T01131030  RH  037%=      5-min Rain = 0
KDO1 091501Z 27003KT 11/M03 A2978 RMK A01 T01141031  RH  036%=      5-min Rain = 0
KDO1 091502Z 25002KT 11/M03 A2978 RMK A01 T01141029  RH  037%=      5-min Rain = 0
KDO1 091503Z 25001KT 12/M03 A2978 RMK A01 T01151029  RH  036%=      5-min Rain = 0
KDO1 091504Z 27003KT 12/M03 A2978 RMK A01 T01161032  RH  035%=      5-min Rain = 0
KDO1 091505Z 28002KT 12/M03 A2978 RMK A01 T01161034  RH  035%=      5-min Rain = 0
KDO1 091506Z 28002KT 12/M03 A2978 RMK A01 T01171034  RH  035%=      5-min Rain = 0
KDO1 091507Z 30004KT 12/M03 A2978 RMK A01 T01181032  RH  035%=      5-min Rain = 0
KDO1 091508Z 30003KT 12/M04 A2978 RMK A01 T01201035  RH  034%=      5-min Rain = 0
KDO1 091509Z 29004KT 12/M03 A2978 RMK A01 T01211034  RH  034%=      5-min Rain = 0
KDO1 091510Z 28002KT 12/M04 A2978 RMK A01 T01231035  RH  033%=      5-min Rain = 0
KDO1 091511Z 29003KT 12/M04 A2978 RMK A01 T01241037  RH  032%=      5-min Rain = 0
KDO1 091512Z 29003KT 12/M04 A2978 RMK A01 T01241038  RH  032%=      5-min Rain = 0
KDO1 091513Z 31002KT 13/M04 A2978 RMK A01 T01251036  RH  032%=      5-min Rain = 0
KDO1 091514Z 26003KT 13/M04 A2978 RMK A01 T01261039  RH  031%=      5-min Rain = 0
KDO1 091515Z 27004KT 13/M04 A2978 RMK A01 T01271041  RH  031%=      5-min Rain = 0
KDO1 091516Z 30003KT 13/M04 A2978 RMK A01 T01301037  RH  031%=      5-min Rain = 0
KDO1 091517Z 31003KT 13/M04 A2978 RMK A01 T01311037  RH  031%=      5-min Rain = 0
KDO1 091518Z 30004KT 13/M04 A2978 RMK A01 T01331038  RH  030%=      5-min Rain = 0
KDO1 091519Z 31003KT 13/M04 A2978 RMK A01 T01331041  RH  029%=      5-min Rain = 0
KDO1 091520Z 29004KT 13/M04 A2978 RMK A01 T01331042  RH  029%=      5-min Rain = 0
KDO1 091521Z 29004KT 13/M04 A2978 RMK A01 T01331044  RH  029%=      5-min Rain = 0
KDO1 091522Z 29004KT 13/M04 A2978 RMK A01 T01321044  RH  029%=      5-min Rain = 0
KDO1 091523Z 29005KT 13/M04 A2978 RMK A01 T01321043  RH  029%=      5-min Rain = 0
KDO1 091524Z 29004KT 13/M04 A2978 RMK A01 T01331043  RH  029%=      5-min Rain = 0
KDO1 091525Z 31004KT 13/M04 A2978 RMK A01 T01341041  RH  029%=      5-min Rain = 0
KDO1 091526Z 32005KT 14/M04 A2978 RMK A01 T01361040  RH  029%=      5-min Rain = 0
KDO1 091527Z 30004KT 14/M04 A2978 RMK A01 T01371041  RH  029%=      5-min Rain = 0
KDO1 091528Z 30004KT 14/M04 A2978 RMK A01 T01371040  RH  029%=      5-min Rain = 0
KDO1 091529Z 31006KT 14/M04 A2978 RMK A01 T01401040  RH  029%=      5-min Rain = 0
KDO1 091530Z 31005KT 14/M04 A2978 RMK A01 T01401043  RH  028%=      5-min Rain = 0
KDO1 091531Z 31004KT 14/M04 A2978 RMK A01 T01401042  RH  028%=      5-min Rain = 0
KDO1 091532Z 30003KT 14/M04 A2978 RMK A01 T01401043  RH  028%=      5-min Rain = 0
KDO1 091533Z 30004KT 14/M04 A2978 RMK A01 T01411041  RH  028%=      5-min Rain = 0
KDO1 091534Z 31002KT 14/M04 A2978 RMK A01 T01421039  RH  028%=      5-min Rain = 0
KDO1 091535Z 32004KT 14/M04 A2978 RMK A01 T01441040  RH  028%=      5-min Rain = 0
KDO1 091536Z 32005KT 15/M04 A2978 RMK A01 T01451041  RH  027%=      5-min Rain = 0
KDO1 091537Z 32007KT 15/M04 A2978 RMK A01 T01451042  RH  027%=      5-min Rain = 0
KDO1 091538Z 32005KT 15/M04 A2978 RMK A01 T01461043  RH  027%=      5-min Rain = 0
KDO1 091539Z 32003KT 15/M04 A2978 RMK A01 T01461041  RH  027%=      5-min Rain = 0
KDO1 091540Z 32003KT 15/M04 A2978 RMK A01 T01471042  RH  027%=      5-min Rain = 0
KDO1 091541Z 33004KT 15/M04 A2979 RMK A01 T01491042  RH  027%=      5-min Rain = 0
KDO1 091542Z 33004KT 15/M04 A2978 RMK A01 T01501043  RH  026%=      5-min Rain = 0
KDO1 091543Z 32003KT 15/M04 A2978 RMK A01 T01511039  RH  027%=      5-min Rain = 0
KDO1 091544Z 29004KT 15/M04 A2978 RMK A01 T01531039  RH  026%=      5-min Rain = 0
KDO1 091545Z 30005KT 15/M04 A2979 RMK A01 T01531044  RH  025%=      5-min Rain = 0
KDO1 091546Z 29004KT 15/M04 A2979 RMK A01 T01541043  RH  025%=      5-min Rain = 0
KDO1 091547Z 29004KT 16/M04 A2979 RMK A01 T01561042  RH  025%=      5-min Rain = 0
KDO1 091548Z 31003KT 16/M04 A2979 RMK A01 T01571043  RH  025%=      5-min Rain = 0
KDO1 091549Z 30003KT 16/M04 A2979 RMK A01 T01581044  RH  025%=      5-min Rain = 0
KDO1 091550Z 31004KT 16/M04 A2978 RMK A01 T01581043  RH  025%=      5-min Rain = 0
KDO1 091551Z 32004KT 16/M04 A2978 RMK A01 T01601043  RH  024%=      5-min Rain = 0
KDO1 091552Z 32002KT 16/M04 A2978 RMK A01 T01631043  RH  024%=      5-min Rain = 0
KDO1 091553Z 28003KT 17/M04 A2978 RMK A01 T01651043  RH  024%=      5-min Rain = 0
KDO1 091554Z 29002KT 17/M04 A2978 RMK A01 T01651043  RH  024%=      5-min Rain = 0
KDO1 091555Z 33003KT 17/M04 A2978 RMK A01 T01671044  RH  023%=      5-min Rain = 0
KDO1 091556Z 32003KT 17/M05 A2978 RMK A01 T01691047  RH  022%=      5-min Rain = 0
KDO1 091557Z 30004KT 17/M05 A2978 RMK A01 T01721050  RH  022%=      5-min Rain = 0
KDO1 091558Z 33004KT 17/M05 A2978 RMK A01 T01741051  RH  021%=      5-min Rain = 0
KDO1 091559Z 32005KT 18/M05 A2978 RMK A01 T01771053  RH  020%=      5-min Rain = 0
KDO1 091600Z 32007KT 18/M06 A2978 RMK A01 T01791060  RH  019%=      5-min Rain = 0
KDO1 091601Z 34006KT 18/M06 A2978 RMK A01 T01791060  RH  019%=      5-min Rain = 0
KDO1 091602Z 33007KT 18/M06 A2978 RMK A01 T01791058  RH  019%=      5-min Rain = 0
KDO1 091603Z 33006KT 18/M06 A2978 RMK A01 T01801062  RH  019%=      5-min Rain = 0
KDO1 091604Z 34005KT 18/M06 A2978 RMK A01 T01811058  RH  019%=      5-min Rain = 0
KDO1 091605Z 34007KT 18/M06 A2979 RMK A01 T01811061  RH  019%=      5-min Rain = 0
KDO1 091606Z 34008KT 18/M06 A2979 RMK A01 T01811064  RH  018%=      5-min Rain = 0
KDO1 091607Z 32008KT 18/M06 A2979 RMK A01 T01801063  RH  018%=      5-min Rain = 0
KDO1 091608Z 31007KT 18/M07 A2979 RMK A01 T01801069  RH  018%=      5-min Rain = 0
KDO1 091609Z 32007KT 18/M07 A2979 RMK A01 T01791065  RH  018%=      5-min Rain = 0
KDO1 091610Z 32008KT 18/M07 A2979 RMK A01 T01801066  RH  018%=      5-min Rain = 0
KDO1 091611Z 32010KT 18/M06 A2979 RMK A01 T01811064  RH  018%=      5-min Rain = 0
KDO1 091612Z 32008KT 18/M07 A2979 RMK A01 T01811069  RH  018%=      5-min Rain = 0
KDO1 091613Z 33008KT 18/M07 A2979 RMK A01 T01811069  RH  018%=      5-min Rain = 0
KDO1 091614Z 33009KT 18/M07 A2979 RMK A01 T01801070  RH  018%=      5-min Rain = 0
KDO1 091615Z 33009KT 18/M07 A2979 RMK A01 T01801068  RH  018%=      5-min Rain = 0
KDO1 091616Z 32008KT 18/M07 A2979 RMK A01 T01811068  RH  018%=      5-min Rain = 0
KDO1 091617Z 33005KT 18/M07 A2979 RMK A01 T01821068  RH  018%=      5-min Rain = 0
KDO1 091618Z 31007KT 18/M06 A2979 RMK A01 T01841062  RH  018%=      5-min Rain = 0
KDO1 091619Z 31007KT 19/M07 A2979 RMK A01 T01861067  RH  017%=      5-min Rain = 0
KDO1 091620Z 33008KT 19/M07 A2979 RMK A01 T01861067  RH  017%=      5-min Rain = 0
KDO1 091621Z 33008KT 19/M07 A2979 RMK A01 T01861070  RH  017%=      5-min Rain = 0
KDO1 091622Z 31007KT 19/M07 A2979 RMK A01 T01861068  RH  017%=      5-min Rain = 0
KDO1 091623Z 32006KT 19/M07 A2979 RMK A01 T01861070  RH  017%=      5-min Rain = 0
KDO1 091624Z 30006KT 19/M06 A2979 RMK A01 T01881062  RH  018%=      5-min Rain = 0
KDO1 091625Z 30007KT 19/M07 A2979 RMK A01 T01911066  RH  017%=      5-min Rain = 0
KDO1 091626Z 32006KT 19/M07 A2979 RMK A01 T01911067  RH  017%=      5-min Rain = 0
KDO1 091627Z 32006KT 19/M07 A2979 RMK A01 T01911069  RH  017%=      5-min Rain = 0
KDO1 091628Z 33005KT 19/M07 A2979 RMK A01 T01911070  RH  016%=      5-min Rain = 0
KDO1 091629Z 32004KT 19/M07 A2979 RMK A01 T01911068  RH  017%=      5-min Rain = 0
KDO1 091630Z 32004KT 19/M07 A2979 RMK A01 T01911069  RH  016%=      5-min Rain = 0
KDO1 091631Z 31005KT 19/M06 A2979 RMK A01 T01941063  RH  017%=      5-min Rain = 0
KDO1 091632Z 30004KT 20/M07 A2979 RMK A01 T01961067  RH  016%=      5-min Rain = 0
KDO1 091633Z 30006KT 20/M07 A2979 RMK A01 T01971069  RH  016%=      5-min Rain = 0
KDO1 091634Z 29006KT 20/M07 A2979 RMK A01 T01971073  RH  015%=      5-min Rain = 0
KDO1 091635Z 32007KT 20/M07 A2979 RMK A01 T01961072  RH  016%=      5-min Rain = 0
KDO1 091636Z 34008KT 20/M07 A2979 RMK A01 T01971071  RH  016%=      5-min Rain = 0
KDO1 091637Z 33007KT 20/M07 A2979 RMK A01 T01981069  RH  016%=      5-min Rain = 0
KDO1 091638Z 31007KT 20/M07 A2979 RMK A01 T01991071  RH  015%=      5-min Rain = 0
KDO1 091639Z 34007KT 20/M07 A2979 RMK A01 T02001068  RH  016%=      5-min Rain = 0
KDO1 091640Z 32007KT 20/M07 A2979 RMK A01 T02001070  RH  015%=      5-min Rain = 0
KDO1 091641Z 31009KT 20/M07 A2979 RMK A01 T02011069  RH  016%=      5-min Rain = 0
KDO1 091642Z 31008KT 20/M07 A2979 RMK A01 T02021074  RH  015%=      5-min Rain = 0
KDO1 091643Z 32007KT 20/M08 A2979 RMK A01 T02011077  RH  015%=      5-min Rain = 0
KDO1 091644Z 32009KT 20/M07 A2979 RMK A01 T02011074  RH  015%=      5-min Rain = 0
KDO1 091645Z 32009KT 20/M07 A2979 RMK A01 T02031070  RH  015%=      5-min Rain = 0
KDO1 091646Z 32009KT 21/M07 A2979 RMK A01 T02051071  RH  015%=      5-min Rain = 0
KDO1 091647Z 31009KT 21/M07 A2979 RMK A01 T02051073  RH  015%=      5-min Rain = 0
KDO1 091648Z 33007KT 21/M07 A2979 RMK A01 T02051074  RH  015%=      5-min Rain = 0
KDO1 091649Z 35007KT 21/M07 A2979 RMK A01 T02051069  RH  015%=      5-min Rain = 0
KDO1 091650Z 34007KT 21/M07 A2979 RMK A01 T02071069  RH  015%=      5-min Rain = 0
KDO1 091651Z 34006KT 21/M07 A2979 RMK A01 T02071074  RH  014%=      5-min Rain = 0
KDO1 091652Z 33005KT 21/M07 A2979 RMK A01 T02061074  RH  015%=      5-min Rain = 0
KDO1 091653Z 33007KT 21/M07 A2979 RMK A01 T02061071  RH  015%=      5-min Rain = 0
KDO1 091654Z 34006KT 21/M07 A2979 RMK A01 T02061071  RH  015%=      5-min Rain = 0
KDO1 091655Z 35008KT 21/M07 A2979 RMK A01 T02081071  RH  015%=      5-min Rain = 0
KDO1 091656Z 34009KT 21/M07 A2979 RMK A01 T02091072  RH  014%=      5-min Rain = 0
KDO1 091657Z 33008KT 21/M07 A2979 RMK A01 T02091073  RH  014%=      5-min Rain = 0
KDO1 091658Z 33007KT 21/M07 A2979 RMK A01 T02091072  RH  014%=      5-min Rain = 0
KDO1 091659Z 32007KT 21/M07 A2979 RMK A01 T02091072  RH  014%=      5-min Rain = 0
KDO1 091700Z 33007KT 21/M07 A2979 RMK A01 T02111072  RH  014%=      5-min Rain = 0
KDO1 091701Z 33007KT 21/M07 A2979 RMK A01 T02121074  RH  014%=      5-min Rain = 0
KDO1 091702Z 33009KT 21/M07 A2979 RMK A01 T02131073  RH  014%=      5-min Rain = 0
KDO1 091703Z 34009KT 22/M07 A2979 RMK A01 T02151072  RH  014%=      5-min Rain = 0
KDO1 091704Z 34011KT 22/M07 A2979 RMK A01 T02161073  RH  014%=      5-min Rain = 0
KDO1 091705Z 32011KT 22/M08 A2979 RMK A01 T02161078  RH  013%=      5-min Rain = 0
KDO1 091706Z 32009KT 22/M08 A2979 RMK A01 T02151079  RH  013%=      5-min Rain = 0
KDO1 091707Z 34011KT 22/M07 A2979 RMK A01 T02151074  RH  014%=      5-min Rain = 0
KDO1 091708Z 35010KT 22/M08 A2979 RMK A01 T02161075  RH  014%=      5-min Rain = 0
KDO1 091709Z 36009KT 22/M08 A2979 RMK A01 T02151076  RH  014%=      5-min Rain = 0
KDO1 091710Z 36008KT 21/M08 A2979 RMK A01 T02141077  RH  013%=      5-min Rain = 0
KDO1 091711Z 36007KT 22/M08 A2979 RMK A01 T02151076  RH  013%=      5-min Rain = 0
KDO1 091712Z 34005KT 22/M08 A2979 RMK A01 T02161078  RH  013%=      5-min Rain = 0
KDO1 091713Z 35009KT 22/M07 A2979 RMK A01 T02181073  RH  014%=      5-min Rain = 0
KDO1 091714Z 35008KT 22/M07 A2979 RMK A01 T02201074  RH  013%=      5-min Rain = 0
KDO1 091715Z 34008KT 22/M08 A2979 RMK A01 T02211077  RH  013%=      5-min Rain = 0
KDO1 091716Z 34009KT 22/M07 A2979 RMK A01 T02231071  RH  013%=      5-min Rain = 0
KDO1 091717Z 34010KT 23/M07 A2979 RMK A01 T02251073  RH  013%=      5-min Rain = 0
KDO1 091718Z 35006KT 22/M08 A2979 RMK A01 T02231078  RH  013%=      5-min Rain = 0
KDO1 091719Z 35005G10KT 22/M07 A2979 RMK A01 T02221073  RH  013%=      5-min Rain = 0
KDO1 091720Z 01010KT 22/M07 A2979 RMK A01 T02241074  RH  013%=      5-min Rain = 0
KDO1 091721Z 35007KT 23/M08 A2979 RMK A01 T02251078  RH  012%=      5-min Rain = 0
KDO1 091722Z 01007KT 22/M08 A2978 RMK A01 T02241078  RH  013%=      5-min Rain = 0
KDO1 091723Z 33010G17KT 22/M08 A2978 RMK A01 T02241077  RH  013%=      5-min Rain = 0
KDO1 091724Z 34007KT 23/M08 A2979 RMK A01 T02261075  RH  013%=      5-min Rain = 0
KDO1 091725Z 35006KT 23/M07 A2979 RMK A01 T02261073  RH  013%=      5-min Rain = 0
KDO1 091726Z 36007KT 23/M07 A2979 RMK A01 T02271074  RH  013%=      5-min Rain = 0
KDO1 091727Z 36010KT 23/M08 A2979 RMK A01 T02281075  RH  013%=      5-min Rain = 0
KDO1 091728Z 01011KT 23/M08 A2979 RMK A01 T02291078  RH  012%=      5-min Rain = 0
KDO1 091729Z 01010KT 23/M08 A2978 RMK A01 T02281078  RH  012%=      5-min Rain = 0
KDO1 091730Z 01010KT 23/M08 A2978 RMK A01 T02281078  RH  012%=      5-min Rain = 0
KDO1 091731Z 36009KT 23/M08 A2978 RMK A01 T02291081  RH  012%=      5-min Rain = 0
KDO1 091732Z 35010KT 23/M08 A2978 RMK A01 T02281080  RH  012%=      5-min Rain = 0
KDO1 091733Z 35009KT 23/M08 A2978 RMK A01 T02261081  RH  012%=      5-min Rain = 0
KDO1 091734Z 36008KT 23/M08 A2978 RMK A01 T02251083  RH  012%=      5-min Rain = 0
KDO1 091735Z 34007KT 23/M08 A2978 RMK A01 T02251081  RH  012%=      5-min Rain = 0
KDO1 091736Z 35011G16KT 23/M08 A2978 RMK A01 T02251084  RH  012%=      5-min Rain = 0
KDO1 091737Z 35009KT 22/M08 A2978 RMK A01 T02241081  RH  012%=      5-min Rain = 0
KDO1 091738Z 35010KT 23/M08 A2978 RMK A01 T02261080  RH  012%=      5-min Rain = 0
KDO1 091739Z 33010KT 23/M08 A2978 RMK A01 T02261081  RH  012%=      5-min Rain = 0
KDO1 091740Z 33011KT 23/M08 A2978 RMK A01 T02261082  RH  012%=      5-min Rain = 0
KDO1 091741Z 32008KT 23/M08 A2978 RMK A01 T02251082  RH  012%=      5-min Rain = 0
KDO1 091742Z 33008KT 22/M08 A2978 RMK A01 T02241084  RH  012%=      5-min Rain = 0
KDO1 091743Z 33006KT 22/M08 A2978 RMK A01 T02231084  RH  012%=      5-min Rain = 0
KDO1 091744Z 35008KT 22/M08 A2978 RMK A01 T02231083  RH  012%=      5-min Rain = 0
KDO1 091745Z 00007KT 22/M08 A2978 RMK A01 T02231082  RH  012%=      5-min Rain = 0
KDO1 091746Z 36012KT 23/M08 A2978 RMK A01 T02251082  RH  012%=      5-min Rain = 0
KDO1 091747Z 36010KT 23/M09 A2978 RMK A01 T02251086  RH  012%=      5-min Rain = 0
KDO1 091748Z 01007KT 22/M08 A2978 RMK A01 T02241084  RH  012%=      5-min Rain = 0
KDO1 091749Z 35008KT 23/M08 A2978 RMK A01 T02251078  RH  012%=      5-min Rain = 0
KDO1 091750Z 36010G15KT 23/M08 A2978 RMK A01 T02271080  RH  012%=      5-min Rain = 0
KDO1 091751Z 35010KT 23/M08 A2978 RMK A01 T02281082  RH  012%=      5-min Rain = 0
KDO1 091752Z 00009KT 23/M08 A2978 RMK A01 T02281082  RH  012%=      5-min Rain = 0
KDO1 091753Z 01010KT 23/M08 A2978 RMK A01 T02281084  RH  012%=      5-min Rain = 0
KDO1 091754Z 01007KT 23/M09 A2978 RMK A01 T02291085  RH  012%=      5-min Rain = 0
KDO1 091755Z 36011KT 23/M08 A2978 RMK A01 T02301084  RH  012%=      5-min Rain = 0
KDO1 091756Z 01011KT 23/M08 A2978 RMK A01 T02311084  RH  011%=      5-min Rain = 0
KDO1 091757Z 01011KT 23/M09 A2978 RMK A01 T02301085  RH  011%=      5-min Rain = 0
KDO1 091758Z 36013KT 23/M08 A2978 RMK A01 T02311084  RH  011%=      5-min Rain = 0
KDO1 091759Z 36010KT 23/M09 A2978 RMK A01 T02301086  RH  011%=      5-min Rain = 0
KDO1 091800Z 00013KT 23/M09 A2978 RMK A01 T02301088  RH  011%=      5-min Rain = 0
KDO1 091801Z 01010G15KT 23/M09 A2978 RMK A01 T02291088  RH  011%=      5-min Rain = 0
KDO1 091802Z 00012KT 23/M09 A2978 RMK A01 T02301086  RH  011%=      5-min Rain = 0
KDO1 091803Z 01012KT 23/M09 A2978 RMK A01 T02311087  RH  011%=      5-min Rain = 0
KDO1 091804Z 01008KT 23/M09 A2978 RMK A01 T02321085  RH  011%=      5-min Rain = 0
KDO1 091805Z 01009KT 23/M08 A2978 RMK A01 T02341083  RH  011%=      5-min Rain = 0
KDO1 091806Z 35008KT 24/M08 A2978 RMK A01 T02351083  RH  011%=      5-min Rain = 0
KDO1 091807Z 00007KT 24/M08 A2978 RMK A01 T02351083  RH  011%=      5-min Rain = 0
KDO1 091808Z 02010KT 24/M09 A2978 RMK A01 T02351085  RH  011%=      5-min Rain = 0
KDO1 091809Z 01011KT 24/M09 A2978 RMK A01 T02351087  RH  011%=      5-min Rain = 0
KDO1 091810Z 00010KT 23/M09 A2978 RMK A01 T02341086  RH  011%=      5-min Rain = 0
KDO1 091811Z 36005KT 23/M08 A2978 RMK A01 T02341084  RH  011%=      5-min Rain = 0
KDO1 091812Z 33007KT 24/M09 A2978 RMK A01 T02351085  RH  011%=      5-min Rain = 0
KDO1 091813Z 33011KT 24/M08 A2978 RMK A01 T02351082  RH  011%=      5-min Rain = 0
KDO1 091814Z 35011KT 24/M08 A2978 RMK A01 T02361083  RH  011%=      5-min Rain = 0
KDO1 091815Z 36011KT 24/M08 A2978 RMK A01 T02361084  RH  011%=      5-min Rain = 0
KDO1 091816Z 36014KT 24/M09 A2978 RMK A01 T02351086  RH  011%=      5-min Rain = 0
KDO1 091817Z 36012KT 24/M08 A2978 RMK A01 T02351083  RH  011%=      5-min Rain = 0
KDO1 091818Z 36010KT 24/M09 A2978 RMK A01 T02361085  RH  011%=      5-min Rain = 0
KDO1 091819Z 00008KT 24/M09 A2978 RMK A01 T02351085  RH  011%=      5-min Rain = 0
KDO1 091820Z 02008KT 23/M09 A2978 RMK A01 T02341087  RH  011%=      5-min Rain = 0
KDO1 091821Z 01010KT 23/M09 A2978 RMK A01 T02341088  RH  011%=      5-min Rain = 0
KDO1 091822Z 00012KT 23/M09 A2978 RMK A01 T02341088  RH  011%=      5-min Rain = 0
KDO1 091823Z 35011KT 23/M09 A2977 RMK A01 T02321090  RH  011%=      5-min Rain = 0
KDO1 091824Z 35008KT 23/M09 A2977 RMK A01 T02301088  RH  011%=      5-min Rain = 0
KDO1 091825Z 36011KT 23/M08 A2978 RMK A01 T02321083  RH  012%=      5-min Rain = 0
KDO1 091826Z 35010KT 23/M09 A2978 RMK A01 T02321087  RH  011%=      5-min Rain = 0
KDO1 091827Z 34011KT 23/M09 A2978 RMK A01 T02311086  RH  011%=      5-min Rain = 0
KDO1 091828Z 36011KT 23/M09 A2978 RMK A01 T02311086  RH  011%=      5-min Rain = 0
KDO1 091829Z 36011KT 23/M09 A2978 RMK A01 T02311087  RH  011%=      5-min Rain = 0
KDO1 091830Z 01011KT 23/M09 A2978 RMK A01 T02311085  RH  011%=      5-min Rain = 0
KDO1 091831Z 01007KT 23/M09 A2978 RMK A01 T02321090  RH  011%=      5-min Rain = 0
KDO1 091832Z 34009KT 23/M09 A2978 RMK A01 T02301089  RH  011%=      5-min Rain = 0
KDO1 091833Z 33006KT 23/M09 A2978 RMK A01 T02301087  RH  011%=      5-min Rain = 0
KDO1 091834Z 34008KT 23/M09 A2978 RMK A01 T02301087  RH  011%=      5-min Rain = 0
KDO1 091835Z 34012KT 23/M09 A2978 RMK A01 T02301085  RH  012%=      5-min Rain = 0
KDO1 091836Z 33010G15KT 23/M09 A2978 RMK A01 T02311087  RH  011%=      5-min Rain = 0
KDO1 091837Z 34009KT 23/M09 A2978 RMK A01 T02311085  RH  011%=      5-min Rain = 0
KDO1 091838Z 35011KT 23/M08 A2978 RMK A01 T02321084  RH  011%=      5-min Rain = 0
KDO1 091839Z 36009KT 23/M08 A2978 RMK A01 T02331082  RH  012%=      5-min Rain = 0
KDO1 091840Z 35009KT 24/M09 A2978 RMK A01 T02351085  RH  011%=      5-min Rain = 0
KDO1 091841Z 35009KT 23/M09 A2978 RMK A01 T02341088  RH  011%=      5-min Rain = 0
KDO1 091842Z 35007G12KT 23/M08 A2978 RMK A01 T02341079  RH  012%=      5-min Rain = 0
KDO1 091843Z 35013KT 24/M08 A2977 RMK A01 T02371080  RH  011%=      5-min Rain = 0
KDO1 091844Z 01012KT 24/M08 A2977 RMK A01 T02381084  RH  011%=      5-min Rain = 0
KDO1 091845Z 01013KT 24/M09 A2978 RMK A01 T02371090  RH  011%=      5-min Rain = 0
KDO1 091846Z 35008KT 24/M09 A2977 RMK A01 T02351085  RH  011%=      5-min Rain = 0
KDO1 091847Z 36009KT 24/M08 A2977 RMK A01 T02381081  RH  011%=      5-min Rain = 0
KDO1 091848Z 02009KT 24/M09 A2977 RMK A01 T02411085  RH  011%=      5-min Rain = 0
KDO1 091849Z 36010KT 24/M09 A2977 RMK A01 T02411088  RH  011%=      5-min Rain = 0
KDO1 091850Z 00012KT 24/M09 A2977 RMK A01 T02401087  RH  011%=      5-min Rain = 0
KDO1 091851Z 01009KT 24/M09 A2977 RMK A01 T02401090  RH  010%=      5-min Rain = 0
KDO1 091852Z 01011KT 24/M09 A2977 RMK A01 T02381091  RH  010%=      5-min Rain = 0
KDO1 091853Z 00013KT 24/M09 A2977 RMK A01 T02381090  RH  011%=      5-min Rain = 0
KDO1 091854Z 35010KT 24/M09 A2977 RMK A01 T02381087  RH  011%=      5-min Rain = 0
KDO1 091855Z 36014KT 24/M09 A2977 RMK A01 T02381089  RH  011%=      5-min Rain = 0
KDO1 091856Z 34012KT 24/M09 A2977 RMK A01 T02371090  RH  011%=      5-min Rain = 0
KDO1 091857Z 35012KT 24/M09 A2977 RMK A01 T02361090  RH  011%=      5-min Rain = 0
KDO1 091858Z 36015KT 24/M09 A2978 RMK A01 T02361088  RH  011%=      5-min Rain = 0
KDO1 091859Z 00010KT 24/M09 A2978 RMK A01 T02371089  RH  011%=      5-min Rain = 0
KDO1 091900Z 02012KT 24/M09 A2978 RMK A01 T02371090  RH  011%=      5-min Rain = 0
KDO1 091901Z 35015KT 24/M09 A2978 RMK A01 T02361093  RH  010%=      5-min Rain = 0
KDO1 091902Z 35013KT 24/M09 A2977 RMK A01 T02361089  RH  011%=      5-min Rain = 0
KDO1 091903Z 35010KT 24/M09 A2977 RMK A01 T02361088  RH  011%=      5-min Rain = 0
KDO1 091904Z 36008KT 24/M09 A2977 RMK A01 T02361088  RH  011%=      5-min Rain = 0
KDO1 091905Z 35007KT 24/M09 A2977 RMK A01 T02371087  RH  011%=      5-min Rain = 0
KDO1 091906Z 00009KT 24/M08 A2977 RMK A01 T02391083  RH  011%=      5-min Rain = 0
KDO1 091907Z 34011G16KT 24/M08 A2977 RMK A01 T02421081  RH  011%=      5-min Rain = 0
KDO1 091908Z 35012KT 24/M09 A2977 RMK A01 T02431085  RH  011%=      5-min Rain = 0
KDO1 091909Z 34012KT 24/M09 A2977 RMK A01 T02421085  RH  011%=      5-min Rain = 0
KDO1 091910Z 01011G16KT 24/M08 A2977 RMK A01 T02421083  RH  011%=      5-min Rain = 0
KDO1 091911Z 01009KT 24/M09 A2977 RMK A01 T02441086  RH  010%=      5-min Rain = 0
KDO1 091912Z 00013KT 24/M09 A2977 RMK A01 T02441087  RH  010%=      5-min Rain = 0
KDO1 091913Z 36011KT 24/M09 A2977 RMK A01 T02411090  RH  010%=      5-min Rain = 0
KDO1 091914Z 01009G15KT 24/M09 A2977 RMK A01 T02391087  RH  011%=      5-min Rain = 0
KDO1 091915Z 34010G15KT 24/M09 A2977 RMK A01 T02391088  RH  011%=      5-min Rain = 0
KDO1 091916Z 35012KT 24/M09 A2977 RMK A01 T02401086  RH  011%=      5-min Rain = 0
KDO1 091917Z 34012KT 24/M09 A2977 RMK A01 T02391089  RH  011%=      5-min Rain = 0
KDO1 091918Z 00011KT 24/M09 A2977 RMK A01 T02371086  RH  011%=      5-min Rain = 0
KDO1 091919Z 00011KT 24/M09 A2977 RMK A01 T02391089  RH  011%=      5-min Rain = 0
KDO1 091920Z 01012KT 24/M09 A2977 RMK A01 T02381089  RH  011%=      5-min Rain = 0
KDO1 091921Z 01011KT 24/M09 A2977 RMK A01 T02361092  RH  010%=      5-min Rain = 0
KDO1 091922Z 00010KT 23/M09 A2977 RMK A01 T02341093  RH  011%=      5-min Rain = 0
KDO1 091923Z 34012KT 23/M09 A2977 RMK A01 T02341088  RH  011%=      5-min Rain = 0
KDO1 091924Z 34010KT 24/M09 A2977 RMK A01 T02361087  RH  011%=      5-min Rain = 0
KDO1 091925Z 34008KT 24/M09 A2977 RMK A01 T02371087  RH  011%=      5-min Rain = 0
KDO1 091926Z 34013KT 24/M08 A2977 RMK A01 T02381082  RH  011%=      5-min Rain = 0
KDO1 091927Z 35011KT 24/M09 A2977 RMK A01 T02401085  RH  011%=      5-min Rain = 0
KDO1 091928Z 35010KT 24/M09 A2977 RMK A01 T02391085  RH  011%=      5-min Rain = 0
KDO1 091929Z 36014G19KT 24/M08 A2977 RMK A01 T02401081  RH  011%=      5-min Rain = 0
KDO1 091930Z 35013KT 24/M09 A2977 RMK A01 T02411087  RH  011%=      5-min Rain = 0
KDO1 091931Z 36009G14KT 24/M09 A2977 RMK A01 T02381091  RH  010%=      5-min Rain = 0
KDO1 091932Z 01009KT 24/M09 A2976 RMK A01 T02361092  RH  011%=      5-min Rain = 0
KDO1 091933Z 36011G17KT 24/M09 A2976 RMK A01 T02351091  RH  011%=      5-min Rain = 0
KDO1 091934Z 00010KT 24/M09 A2976 RMK A01 T02361088  RH  011%=      5-min Rain = 0
KDO1 091935Z 01008KT 24/M09 A2976 RMK A01 T02361089  RH  011%=      5-min Rain = 0
KDO1 091936Z 02010G16KT 24/M09 A2976 RMK A01 T02361092  RH  010%=      5-min Rain = 0
KDO1 091937Z 03009G14KT 24/M09 A2976 RMK A01 T02361093  RH  010%=      5-min Rain = 0
KDO1 091938Z 01011KT 24/M09 A2976 RMK A01 T02381088  RH  011%=      5-min Rain = 0
KDO1 091939Z 35008KT 24/M09 A2976 RMK A01 T02381091  RH  010%=      5-min Rain = 0
KDO1 091940Z 36013KT 24/M09 A2976 RMK A01 T02371089  RH  011%=      5-min Rain = 0
KDO1 091941Z 36011KT 24/M09 A2976 RMK A01 T02361092  RH  010%=      5-min Rain = 0
KDO1 091942Z 01010KT 24/M09 A2976 RMK A01 T02361092  RH  011%=      5-min Rain = 0
KDO1 091943Z 00010KT 24/M09 A2976 RMK A01 T02371093  RH  010%=      5-min Rain = 0
KDO1 091944Z 00015KT 24/M09 A2976 RMK A01 T02381089  RH  011%=      5-min Rain = 0
KDO1 091945Z 35012KT 24/M09 A2976 RMK A01 T02381093  RH  010%=      5-min Rain = 0
KDO1 091946Z 01009G14KT 24/M09 A2976 RMK A01 T02361091  RH  011%=      5-min Rain = 0
KDO1 091947Z 02010KT 24/M09 A2976 RMK A01 T02361094  RH  010%=      5-min Rain = 0
KDO1 091948Z 00011KT 24/M10 A2976 RMK A01 T02361095  RH  010%=      5-min Rain = 0
KDO1 091949Z 35013KT 24/M09 A2976 RMK A01 T02361091  RH  011%=      5-min Rain = 0
KDO1 091950Z 00009KT 24/M09 A2977 RMK A01 T02371092  RH  010%=      5-min Rain = 0
KDO1 091951Z 36012G17KT 24/M09 A2976 RMK A01 T02371093  RH  010%=      5-min Rain = 0
KDO1 091952Z 00012G17KT 24/M09 A2977 RMK A01 T02381089  RH  011%=      5-min Rain = 0
KDO1 091953Z 01008KT 24/M09 A2977 RMK A01 T02381093  RH  010%=      5-min Rain = 0
KDO1 091954Z 01010KT 24/M09 A2976 RMK A01 T02381089  RH  011%=      5-min Rain = 0
KDO1 091955Z 01010G15KT 24/M09 A2976 RMK A01 T02411088  RH  010%=      5-min Rain = 0
KDO1 091956Z 01014KT 24/M09 A2977 RMK A01 T02431093  RH  010%=      5-min Rain = 0
KDO1 091957Z 01011KT 24/M10 A2977 RMK A01 T02391095  RH  010%=      5-min Rain = 0
KDO1 091958Z 01010G16KT 24/M10 A2977 RMK A01 T02371095  RH  010%=      5-min Rain = 0
KDO1 091959Z 02011G16KT 24/M10 A2976 RMK A01 T02371096  RH  010%=      5-min Rain = 0
KDO1 092000Z 03010G15KT 24/M10 A2977 RMK A01 T02351095  RH  010%=      5-min Rain = 0
KDO1 092001Z 02009KT 24/M09 A2976 RMK A01 T02361092  RH  011%=      5-min Rain = 0
KDO1 092002Z 02011KT 24/M10 A2976 RMK A01 T02381095  RH  010%=      5-min Rain = 0
KDO1 092003Z 02013G18KT 24/M09 A2976 RMK A01 T02371094  RH  010%=      5-min Rain = 0
KDO1 092004Z 00015KT 24/M10 A2977 RMK A01 T02361097  RH  010%=      5-min Rain = 0
KDO1 092005Z 35013KT 23/M10 A2976 RMK A01 T02331097  RH  010%=      5-min Rain = 0
KDO1 092006Z 00011KT 23/M09 A2976 RMK A01 T02321093  RH  011%=      5-min Rain = 0
KDO1 092007Z 36010G16KT 23/M09 A2976 RMK A01 T02331093  RH  011%=      5-min Rain = 0
KDO1 092008Z 02008KT 23/M09 A2976 RMK A01 T02341094  RH  010%=      5-min Rain = 0
KDO1 092009Z 36010KT 24/M09 A2976 RMK A01 T02371091  RH  010%=      5-min Rain = 0
KDO1 092010Z 01010KT 24/M09 A2976 RMK A01 T02381094  RH  010%=      5-min Rain = 0
KDO1 092011Z 01011G18KT 24/M10 A2976 RMK A01 T02361096  RH  010%=      5-min Rain = 0
KDO1 092012Z 02012KT 24/M10 A2976 RMK A01 T02351097  RH  010%=      5-min Rain = 0
KDO1 092013Z 02012KT 24/M10 A2976 RMK A01 T02351098  RH  010%=      5-min Rain = 0
KDO1 092014Z 03014KT 23/M10 A2976 RMK A01 T02341098  RH  010%=      5-min Rain = 0
KDO1 092015Z 03012KT 23/M10 A2976 RMK A01 T02321099  RH  010%=      5-min Rain = 0
KDO1 092016Z 01008KT 23/M10 A2976 RMK A01 T02321096  RH  010%=      5-min Rain = 0
KDO1 092017Z 36009KT 24/M09 A2976 RMK A01 T02351093  RH  010%=      5-min Rain = 0
KDO1 092018Z 36012KT 24/M09 A2976 RMK A01 T02371092  RH  010%=      5-min Rain = 0
KDO1 092019Z 02012KT 24/M09 A2976 RMK A01 T02371093  RH  010%=      5-min Rain = 0
KDO1 092020Z 03010KT 24/M10 A2976 RMK A01 T02361098  RH  010%=      5-min Rain = 0
KDO1 092021Z 01012KT 23/M10 A2976 RMK A01 T02341097  RH  010%=      5-min Rain = 0
KDO1 092022Z 01011KT 23/M10 A2976 RMK A01 T02341096  RH  010%=      5-min Rain = 0
KDO1 092023Z 01009KT 24/M09 A2976 RMK A01 T02351094  RH  010%=      5-min Rain = 0
KDO1 092024Z 02011KT 24/M10 A2976 RMK A01 T02351097  RH  010%=      5-min Rain = 0
KDO1 092025Z 02010KT 23/M10 A2976 RMK A01 T02341097  RH  010%=      5-min Rain = 0
KDO1 092026Z 00009KT 23/M10 A2976 RMK A01 T02341095  RH  010%=      5-min Rain = 0
KDO1 092027Z 00009KT 23/M10 A2976 RMK A01 T02341096  RH  010%=      5-min Rain = 0
KDO1 092028Z 01008G13KT 23/M09 A2976 RMK A01 T02331094  RH  010%=      5-min Rain = 0
KDO1 092029Z 01013KT 23/M10 A2976 RMK A01 T02331096  RH  010%=      5-min Rain = 0
KDO1 092030Z 01011KT 23/M10 A2976 RMK A01 T02331096  RH  010%=      5-min Rain = 0
KDO1 092031Z 00008G14KT 23/M09 A2976 RMK A01 T02341094  RH  011%=      5-min Rain = 0
KDO1 092032Z 02010KT 23/M09 A2976 RMK A01 T02341091  RH  011%=      5-min Rain = 0
KDO1 092033Z 02011KT 24/M09 A2976 RMK A01 T02351092  RH  010%=      5-min Rain = 0
KDO1 092034Z 00010KT 24/M09 A2976 RMK A01 T02351093  RH  010%=      5-min Rain = 0
KDO1 092035Z 02008KT 24/M09 A2976 RMK A01 T02351092  RH  011%=      5-min Rain = 0
KDO1 092036Z 02006KT 23/M09 A2976 RMK A01 T02341092  RH  011%=      5-min Rain = 0
KDO1 092037Z 03007KT 24/M09 A2976 RMK A01 T02351088  RH  011%=      5-min Rain = 0
KDO1 092038Z 02008KT 24/M09 A2976 RMK A01 T02371090  RH  011%=      5-min Rain = 0
KDO1 092039Z 02011KT 24/M09 A2976 RMK A01 T02381092  RH  010%=      5-min Rain = 0
KDO1 092040Z 02008KT 24/M09 A2976 RMK A01 T02351094  RH  010%=      5-min Rain = 0
KDO1 092041Z 04011KT 24/M09 A2976 RMK A01 T02351093  RH  010%=      5-min Rain = 0
KDO1 092042Z 04009KT 23/M10 A2976 RMK A01 T02341095  RH  010%=      5-min Rain = 0
KDO1 092043Z 04008KT 23/M09 A2976 RMK A01 T02321094  RH  011%=      5-min Rain = 0
KDO1 092044Z 04009KT 23/M09 A2976 RMK A01 T02341093  RH  011%=      5-min Rain = 0
KDO1 092045Z 02010KT 24/M09 A2976 RMK A01 T02351093  RH  010%=      5-min Rain = 0
KDO1 092046Z 01011KT 24/M09 A2976 RMK A01 T02361092  RH  011%=      5-min Rain = 0
KDO1 092047Z 01011KT 24/M09 A2976 RMK A01 T02361093  RH  010%=      5-min Rain = 0
KDO1 092048Z 02010KT 24/M09 A2976 RMK A01 T02351092  RH  011%=      5-min Rain = 0
KDO1 092049Z 03009KT 24/M09 A2976 RMK A01 T02351094  RH  010%=      5-min Rain = 0
KDO1 092050Z 03007KT 24/M09 A2976 RMK A01 T02351094  RH  010%=      5-min Rain = 0
KDO1 092051Z 03007KT 24/M09 A2976 RMK A01 T02351093  RH  011%=      5-min Rain = 0
KDO1 092052Z 02010KT 24/M09 A2976 RMK A01 T02351094  RH  010%=      5-min Rain = 0
KDO1 092053Z 01009KT 23/M09 A2976 RMK A01 T02341090  RH  011%=      5-min Rain = 0
KDO1 092054Z 34008KT 23/M09 A2976 RMK A01 T02341089  RH  011%=      5-min Rain = 0
KDO1 092055Z 00009KT 23/M09 A2976 RMK A01 T02341087  RH  011%=      5-min Rain = 0
KDO1 092056Z 35007KT 24/M09 A2976 RMK A01 T02351086  RH  011%=      5-min Rain = 0
KDO1 092057Z 04009G14KT 24/M09 A2976 RMK A01 T02351087  RH  011%=      5-min Rain = 0
KDO1 092058Z 03012KT 24/M09 A2976 RMK A01 T02371085  RH  011%=      5-min Rain = 0
KDO1 092059Z 03012KT 24/M09 A2976 RMK A01 T02371085  RH  011%=      5-min Rain = 0
KDO1 092100Z 04011KT 24/M08 A2976 RMK A01 T02371084  RH  011%=      5-min Rain = 0
KDO1 092101Z 04011KT 24/M08 A2976 RMK A01 T02381083  RH  011%=      5-min Rain = 0
KDO1 092102Z 01009KT 24/M08 A2976 RMK A01 T02371083  RH  011%=      5-min Rain = 0
KDO1 092103Z 01009G14KT 24/M08 A2976 RMK A01 T02371083  RH  011%=      5-min Rain = 0
KDO1 092104Z 01007KT 24/M08 A2976 RMK A01 T02361083  RH  011%=      5-min Rain = 0
KDO1 092105Z 36008KT 24/M08 A2976 RMK A01 T02361083  RH  011%=      5-min Rain = 0
KDO1 092106Z 02010KT 24/M08 A2976 RMK A01 T02351082  RH  011%=      5-min Rain = 0
KDO1 092107Z 02011KT 24/M08 A2976 RMK A01 T02351079  RH  012%=      5-min Rain = 0
KDO1 092108Z 03010KT 24/M07 A2976 RMK A01 T02381074  RH  012%=      5-min Rain = 0
KDO1 092109Z 04010KT 24/M08 A2976 RMK A01 T02401077  RH  012%=      5-min Rain = 0
KDO1 092110Z 04009KT 24/M08 A2976 RMK A01 T02381078  RH  012%=      5-min Rain = 0
KDO1 092111Z 05008KT 24/M08 A2976 RMK A01 T02351079  RH  012%=      5-min Rain = 0
KDO1 092112Z 03008KT 23/M08 A2976 RMK A01 T02341075  RH  012%=      5-min Rain = 0
KDO1 092113Z 01009KT 24/M08 A2976 RMK A01 T02361077  RH  012%=      5-min Rain = 0
KDO1 092114Z 02007KT 24/M08 A2976 RMK A01 T02371079  RH  012%=      5-min Rain = 0
KDO1 092115Z 01009KT 24/M08 A2976 RMK A01 T02351080  RH  012%=      5-min Rain = 0
KDO1 092116Z 00007KT 23/M08 A2976 RMK A01 T02331077  RH  012%=      5-min Rain = 0
KDO1 092117Z 02007KT 23/M07 A2976 RMK A01 T02331074  RH  012%=      5-min Rain = 0
KDO1 092118Z 02009KT 24/M07 A2976 RMK A01 T02351072  RH  012%=      5-min Rain = 0
KDO1 092119Z 02010KT 24/M07 A2976 RMK A01 T02371073  RH  012%=      5-min Rain = 0
KDO1 092120Z 02009KT 24/M07 A2976 RMK A01 T02361073  RH  012%=      5-min Rain = 0
KDO1 092121Z 01009KT 24/M07 A2976 RMK A01 T02361073  RH  012%=      5-min Rain = 0
KDO1 092122Z 36008KT 24/M07 A2976 RMK A01 T02361072  RH  012%=      5-min Rain = 0
KDO1 092123Z 00007KT 24/M07 A2976 RMK A01 T02361073  RH  012%=      5-min Rain = 0
KDO1 092124Z 00009KT 24/M07 A2976 RMK A01 T02351072  RH  012%=      5-min Rain = 0
KDO1 092125Z 36009KT 24/M07 A2976 RMK A01 T02351070  RH  012%=      5-min Rain = 0
KDO1 092126Z 01008KT 24/M07 A2976 RMK A01 T02361069  RH  013%=      5-min Rain = 0
KDO1 092127Z 05006KT 24/M07 A2976 RMK A01 T02371067  RH  013%=      5-min Rain = 0
KDO1 092128Z 05009KT 24/M07 A2976 RMK A01 T02391066  RH  013%=      5-min Rain = 0
KDO1 092129Z 04008KT 24/M07 A2976 RMK A01 T02401066  RH  013%=      5-min Rain = 0
KDO1 092130Z 01008KT 24/M07 A2976 RMK A01 T02401066  RH  012%=      5-min Rain = 0
KDO1 092131Z 00008KT 24/M07 A2976 RMK A01 T02411067  RH  012%=      5-min Rain = 0
KDO1 092132Z 00006KT 24/M07 A2976 RMK A01 T02391066  RH  013%=      5-min Rain = 0
KDO1 092133Z 02006KT 24/M07 A2976 RMK A01 T02391067  RH  013%=      5-min Rain = 0
KDO1 092134Z 02008KT 24/M06 A2976 RMK A01 T02401064  RH  013%=      5-min Rain = 0
KDO1 092135Z 01011KT 24/M07 A2976 RMK A01 T02411065  RH  013%=      5-min Rain = 0
KDO1 092136Z 01008KT 24/M06 A2976 RMK A01 T02391064  RH  013%=      5-min Rain = 0
KDO1 092137Z 01006KT 24/M07 A2976 RMK A01 T02401065  RH  013%=      5-min Rain = 0
KDO1 092138Z 02004KT 24/M07 A2976 RMK A01 T02401068  RH  012%=      5-min Rain = 0
KDO1 092139Z 02007KT 24/M07 A2976 RMK A01 T02381069  RH  012%=      5-min Rain = 0
KDO1 092140Z 01009KT 24/M07 A2976 RMK A01 T02361067  RH  013%=      5-min Rain = 0
KDO1 092141Z 02009KT 24/M07 A2976 RMK A01 T02351067  RH  013%=      5-min Rain = 0
KDO1 092142Z 02009KT 24/M07 A2976 RMK A01 T02351067  RH  013%=      5-min Rain = 0
KDO1 092143Z 01009KT 24/M07 A2976 RMK A01 T02351066  RH  013%=      5-min Rain = 0
KDO1 092144Z 00008KT 24/M07 A2976 RMK A01 T02351066  RH  013%=      5-min Rain = 0
KDO1 092145Z 01007KT 24/M06 A2976 RMK A01 T02361064  RH  013%=      5-min Rain = 0
KDO1 092146Z 02008G13KT 24/M06 A2976 RMK A01 T02391061  RH  013%=      5-min Rain = 0
KDO1 092147Z 03011KT 24/M06 A2976 RMK A01 T02411064  RH  013%=      5-min Rain = 0
KDO1 092148Z 03009KT 24/M06 A2976 RMK A01 T02401064  RH  013%=      5-min Rain = 0
KDO1 092149Z 03013KT 24/M06 A2977 RMK A01 T02391062  RH  013%=      5-min Rain = 0
KDO1 092150Z 04010KT 24/M07 A2977 RMK A01 T02391065  RH  013%=      5-min Rain = 0
KDO1 092151Z 04008KT 24/M06 A2977 RMK A01 T02391064  RH  013%=      5-min Rain = 0
KDO1 092152Z 04010KT 24/M07 A2977 RMK A01 T02381065  RH  013%=      5-min Rain = 0
KDO1 092153Z 04010KT 24/M07 A2977 RMK A01 T02381066  RH  013%=      5-min Rain = 0
KDO1 092154Z 03010KT 24/M06 A2977 RMK A01 T02371064  RH  013%=      5-min Rain = 0
KDO1 092155Z 02007KT 24/M07 A2977 RMK A01 T02371065  RH  013%=      5-min Rain = 0
KDO1 092156Z 03007KT 24/M07 A2977 RMK A01 T02361066  RH  013%=      5-min Rain = 0
KDO1 092157Z 02007KT 24/M07 A2977 RMK A01 T02351066  RH  013%=      5-min Rain = 0
KDO1 092158Z 02006KT 23/M07 A2976 RMK A01 T02341065  RH  013%=      5-min Rain = 0
KDO1 092159Z 03007KT 23/M07 A2977 RMK A01 T02341066  RH  013%=      5-min Rain = 0
KDO1 092200Z 02010KT 23/M07 A2976 RMK A01 T02341065  RH  013%=      5-min Rain = 0
KDO1 092201Z 01009KT 24/M07 A2976 RMK A01 T02351065  RH  013%=      5-min Rain = 0
KDO1 092202Z 01009KT 24/M07 A2976 RMK A01 T02371066  RH  013%=      5-min Rain = 0
KDO1 092203Z 01006KT 24/M07 A2976 RMK A01 T02361069  RH  013%=      5-min Rain = 0
KDO1 092204Z 01007KT 24/M07 A2976 RMK A01 T02351067  RH  013%=      5-min Rain = 0
KDO1 092205Z 01007KT 24/M07 A2976 RMK A01 T02361066  RH  013%=      5-min Rain = 0
KDO1 092206Z 01009KT 24/M06 A2976 RMK A01 T02371064  RH  013%=      5-min Rain = 0
KDO1 092207Z 03008KT 24/M07 A2976 RMK A01 T02381065  RH  013%=      5-min Rain = 0
KDO1 092208Z 04006KT 24/M07 A2976 RMK A01 T02391068  RH  012%=      5-min Rain = 0
KDO1 092209Z 00005KT 24/M06 A2976 RMK A01 T02391063  RH  013%=      5-min Rain = 0
KDO1 092210Z 01005KT 24/M06 A2976 RMK A01 T02391062  RH  013%=      5-min Rain = 0
KDO1 092211Z 01005KT 24/M06 A2976 RMK A01 T02411062  RH  013%=      5-min Rain = 0
KDO1 092212Z 02006KT 24/M06 A2976 RMK A01 T02411063  RH  013%=      5-min Rain = 0
KDO1 092213Z 00009KT 24/M06 A2976 RMK A01 T02401062  RH  013%=      5-min Rain = 0
KDO1 092214Z 02009KT 24/M06 A2976 RMK A01 T02401060  RH  013%=      5-min Rain = 0
KDO1 092215Z 02010KT 24/M06 A2976 RMK A01 T02401060  RH  013%=      5-min Rain = 0
KDO1 092216Z 02010KT 24/M06 A2976 RMK A01 T02391062  RH  013%=      5-min Rain = 0
KDO1 092217Z 02010KT 24/M06 A2976 RMK A01 T02381062  RH  013%=      5-min Rain = 0
KDO1 092218Z 03008KT 24/M06 A2976 RMK A01 T02371063  RH  013%=      5-min Rain = 0
KDO1 092219Z 01008KT 24/M06 A2976 RMK A01 T02361064  RH  013%=      5-min Rain = 0
KDO1 092220Z 02009KT 23/M07 A2976 RMK A01 T02341065  RH  013%=      5-min Rain = 0
KDO1 092221Z 02007KT 23/M07 A2976 RMK A01 T02331065  RH  013%=      5-min Rain = 0
KDO1 092222Z 02006KT 23/M06 A2976 RMK A01 T02341064  RH  013%=      5-min Rain = 0
KDO1 092223Z 02006KT 24/M06 A2976 RMK A01 T02351064  RH  013%=      5-min Rain = 0
KDO1 092224Z 00004G11KT 24/M06 A2976 RMK A01 T02351063  RH  013%=      5-min Rain = 0
KDO1 092225Z 02009KT 24/M06 A2976 RMK A01 T02361064  RH  013%=      5-min Rain = 0
KDO1 092226Z 01007KT 24/M07 A2976 RMK A01 T02361066  RH  013%=      5-min Rain = 0
KDO1 092227Z 01009KT 24/M06 A2976 RMK A01 T02361064  RH  013%=      5-min Rain = 0
KDO1 092228Z 03009KT 24/M07 A2976 RMK A01 T02361067  RH  013%=      5-min Rain = 0
KDO1 092229Z 05009KT 23/M07 A2976 RMK A01 T02341066  RH  013%=      5-min Rain = 0
KDO1 092230Z 03007KT 23/M07 A2976 RMK A01 T02341066  RH  013%=      5-min Rain = 0
KDO1 092231Z 02006KT 23/M06 A2976 RMK A01 T02331064  RH  013%=      5-min Rain = 0
KDO1 092232Z 01005KT 23/M07 A2976 RMK A01 T02321065  RH  013%=      5-min Rain = 0
KDO1 092233Z 01005KT 23/M06 A2976 RMK A01 T02321064  RH  013%=      5-min Rain = 0
KDO1 092234Z 01004KT 23/M06 A2976 RMK A01 T02321064  RH  013%=      5-min Rain = 0
KDO1 092235Z 03006KT 23/M07 A2976 RMK A01 T02321065  RH  013%=      5-min Rain = 0
KDO1 092236Z 03005KT 23/M06 A2976 RMK A01 T02321064  RH  013%=      5-min Rain = 0
KDO1 092237Z 02005KT 23/M06 A2976 RMK A01 T02331063  RH  013%=      5-min Rain = 0
KDO1 092238Z 03008KT 23/M06 A2976 RMK A01 T02341062  RH  013%=      5-min Rain = 0
KDO1 092239Z 03008KT 23/M06 A2976 RMK A01 T02341063  RH  013%=      5-min Rain = 0
KDO1 092240Z 03009KT 23/M06 A2976 RMK A01 T02341062  RH  013%=      5-min Rain = 0
KDO1 092241Z 04008KT 23/M06 A2976 RMK A01 T02341062  RH  013%=      5-min Rain = 0
KDO1 092242Z 05009KT 23/M06 A2976 RMK A01 T02331062  RH  013%=      5-min Rain = 0
KDO1 092243Z 04008KT 23/M06 A2976 RMK A01 T02331062  RH  013%=      5-min Rain = 0
KDO1 092244Z 05007KT 23/M06 A2976 RMK A01 T02331063  RH  013%=      5-min Rain = 0
KDO1 092245Z 04007KT 23/M06 A2976 RMK A01 T02321062  RH  014%=      5-min Rain = 0
KDO1 092246Z 04008KT 23/M06 A2976 RMK A01 T02321062  RH  014%=      5-min Rain = 0
KDO1 092247Z 02007KT 23/M06 A2976 RMK A01 T02321061  RH  014%=      5-min Rain = 0
KDO1 092248Z 02008KT 23/M06 A2976 RMK A01 T02321061  RH  014%=      5-min Rain = 0
KDO1 092249Z 04006KT 23/M06 A2976 RMK A01 T02321062  RH  014%=      5-min Rain = 0
KDO1 092250Z 05006KT 23/M06 A2976 RMK A01 T02321062  RH  014%=      5-min Rain = 0
KDO1 092251Z 05010KT 23/M06 A2976 RMK A01 T02321062  RH  014%=      5-min Rain = 0
KDO1 092252Z 05008KT 23/M06 A2976 RMK A01 T02321061  RH  014%=      5-min Rain = 0
KDO1 092253Z 04009KT 23/M06 A2976 RMK A01 T02321061  RH  014%=      5-min Rain = 0
KDO1 092254Z 05008KT 23/M06 A2976 RMK A01 T02321062  RH  014%=      5-min Rain = 0
KDO1 092255Z 05008KT 23/M06 A2976 RMK A01 T02301063  RH  014%=      5-min Rain = 0
KDO1 092256Z 07008KT 23/M06 A2976 RMK A01 T02291062  RH  014%=      5-min Rain = 0
KDO1 092257Z 06008KT 23/M06 A2976 RMK A01 T02291060  RH  014%=      5-min Rain = 0
KDO1 092258Z 07008KT 23/M06 A2976 RMK A01 T02291060  RH  014%=      5-min Rain = 0
KDO1 092259Z 07008KT 23/M06 A2976 RMK A01 T02291060  RH  014%=      5-min Rain = 0
KDO1 092300Z 05006KT 23/M06 A2976 RMK A01 T02291060  RH  014%=      5-min Rain = 0
KDO1 092301Z 05006KT 23/M06 A2976 RMK A01 T02291060  RH  014%=      5-min Rain = 0
KDO1 092302Z 04007KT 23/M06 A2976 RMK A01 T02291061  RH  014%=      5-min Rain = 0
KDO1 092303Z 04008KT 23/M06 A2976 RMK A01 T02281064  RH  014%=      5-min Rain = 0
KDO1 092304Z 06007KT 23/M06 A2976 RMK A01 T02281062  RH  014%=      5-min Rain = 0
KDO1 092305Z 05008KT 23/M06 A2976 RMK A01 T02281060  RH  014%=      5-min Rain = 0
KDO1 092306Z 04006KT 23/M06 A2976 RMK A01 T02281060  RH  014%=      5-min Rain = 0
KDO1 092307Z 04007KT 23/M06 A2976 RMK A01 T02281060  RH  014%=      5-min Rain = 0
KDO1 092308Z 03006KT 23/M06 A2976 RMK A01 T02271060  RH  014%=      5-min Rain = 0
KDO1 092309Z 03008KT 23/M06 A2976 RMK A01 T02271060  RH  014%=      5-min Rain = 0
KDO1 092310Z 04010KT 23/M06 A2976 RMK A01 T02271060  RH  014%=      5-min Rain = 0
KDO1 092311Z 04010KT 23/M06 A2976 RMK A01 T02271061  RH  014%=      5-min Rain = 0
KDO1 092312Z 03007KT 23/M06 A2976 RMK A01 T02271060  RH  014%=      5-min Rain = 0
KDO1 092313Z 05006KT 23/M06 A2976 RMK A01 T02271061  RH  014%=      5-min Rain = 0
KDO1 092314Z 04006KT 23/M06 A2976 RMK A01 T02271060  RH  014%=      5-min Rain = 0
KDO1 092315Z 05007KT 23/M06 A2976 RMK A01 T02281060  RH  014%=      5-min Rain = 0
KDO1 092316Z 05008KT 23/M06 A2976 RMK A01 T02281058  RH  014%=      5-min Rain = 0
KDO1 092317Z 05010KT 23/M06 A2976 RMK A01 T02291061  RH  014%=      5-min Rain = 0
KDO1 092318Z 05009KT 23/M06 A2976 RMK A01 T02291063  RH  014%=      5-min Rain = 0
KDO1 092319Z 03006KT 23/M06 A2976 RMK A01 T02291064  RH  014%=      5-min Rain = 0
KDO1 092320Z 03006KT 23/M06 A2976 RMK A01 T02291064  RH  014%=      5-min Rain = 0
KDO1 092321Z 02006KT 23/M06 A2976 RMK A01 T02301063  RH  014%=      5-min Rain = 0
KDO1 092322Z 03007KT 23/M06 A2976 RMK A01 T02301063  RH  014%=      5-min Rain = 0
KDO1 092323Z 03007KT 23/M06 A2976 RMK A01 T02301061  RH  014%=      5-min Rain = 0
KDO1 092324Z 04006KT 23/M06 A2976 RMK A01 T02301061  RH  014%=      5-min Rain = 0
KDO1 092325Z 05008KT 23/M06 A2976 RMK A01 T02301061  RH  014%=      5-min Rain = 0
KDO1 092326Z 06008KT 23/M06 A2976 RMK A01 T02291063  RH  014%=      5-min Rain = 0
KDO1 092327Z 05007KT 23/M06 A2976 RMK A01 T02291062  RH  014%=      5-min Rain = 0
KDO1 092328Z 04007KT 23/M06 A2976 RMK A01 T02291063  RH  014%=      5-min Rain = 0
KDO1 092329Z 05009KT 23/M06 A2976 RMK A01 T02291064  RH  014%=      5-min Rain = 0
KDO1 092330Z 05008KT 23/M06 A2976 RMK A01 T02291064  RH  014%=      5-min Rain = 0
KDO1 092331Z 04009KT 23/M06 A2976 RMK A01 T02291064  RH  014%=      5-min Rain = 0
KDO1 092332Z 04007KT 23/M06 A2976 RMK A01 T02291064  RH  014%=      5-min Rain = 0
KDO1 092333Z 04007KT 23/M07 A2976 RMK A01 T02291065  RH  013%=      5-min Rain = 0
KDO1 092334Z 05008KT 23/M07 A2976 RMK A01 T02291065  RH  014%=      5-min Rain = 0
KDO1 092335Z 05009KT 23/M07 A2976 RMK A01 T02281066  RH  013%=      5-min Rain = 0
KDO1 092336Z 05010KT 23/M07 A2977 RMK A01 T02271067  RH  013%=      5-min Rain = 0
KDO1 092337Z 05010KT 23/M07 A2977 RMK A01 T02261068  RH  013%=      5-min Rain = 0
KDO1 092338Z 05009KT 23/M07 A2977 RMK A01 T02251068  RH  013%=      5-min Rain = 0
KDO1 092339Z 05008KT 23/M07 A2977 RMK A01 T02251067  RH  014%=      5-min Rain = 0
KDO1 092340Z 04009KT 23/M07 A2977 RMK A01 T02251067  RH  014%=      5-min Rain = 0
KDO1 092341Z 05006KT 22/M07 A2977 RMK A01 T02241067  RH  014%=      5-min Rain = 0
KDO1 092342Z 05007KT 22/M07 A2977 RMK A01 T02241067  RH  014%=      5-min Rain = 0
KDO1 092343Z 05008KT 22/M07 A2977 RMK A01 T02241068  RH  014%=      5-min Rain = 0
KDO1 092344Z 05010KT 22/M07 A2977 RMK A01 T02231070  RH  013%=      5-min Rain = 0
KDO1 092345Z 04009KT 22/M07 A2977 RMK A01 T02231071  RH  013%=      5-min Rain = 0
KDO1 092346Z 04009KT 22/M07 A2977 RMK A01 T02221071  RH  013%=      5-min Rain = 0
KDO1 092347Z 04008KT 22/M07 A2977 RMK A01 T02221071  RH  013%=      5-min Rain = 0
KDO1 092348Z 04007KT 22/M07 A2977 RMK A01 T02221071  RH  013%=      5-min Rain = 0
KDO1 092349Z 04008KT 22/M07 A2977 RMK A01 T02211071  RH  014%=      5-min Rain = 0
KDO1 092350Z 05008KT 22/M07 A2977 RMK A01 T02211071  RH  014%=      5-min Rain = 0
KDO1 092351Z 05008KT 22/M07 A2977 RMK A01 T02211070  RH  014%=      5-min Rain = 0
KDO1 092352Z 04008KT 22/M07 A2977 RMK A01 T02211070  RH  014%=      5-min Rain = 0
KDO1 092353Z 04009KT 22/M07 A2977 RMK A01 T02201069  RH  014%=      5-min Rain = 0
KDO1 092354Z 04007KT 22/M07 A2977 RMK A01 T02201069  RH  014%=      5-min Rain = 0
KDO1 092355Z 04008KT 22/M07 A2977 RMK A01 T02191068  RH  014%=      5-min Rain = 0
KDO1 092356Z 05008KT 22/M07 A2977 RMK A01 T02191069  RH  014%=      5-min Rain = 0
KDO1 092357Z 04007KT 22/M07 A2977 RMK A01 T02181069  RH  014%=      5-min Rain = 0
KDO1 092358Z 04007KT 22/M07 A2977 RMK A01 T02181068  RH  014%=      5-min Rain = 0
KDO1 092359Z 04006KT 22/M07 A2977 RMK A01 T02181068  RH  014%=      5-min Rain = 0
KDO1 100000Z 04007KT 22/M07 A2977 RMK A01 T02171068  RH  014%=      5-min Rain = 0
KDO1 100001Z 05006KT 22/M07 A2977 RMK A01 T02171069  RH  014%=      5-min Rain = 0
KDO1 100002Z 04007KT 22/M07 A2977 RMK A01 T02171069  RH  014%=      5-min Rain = 0
KDO1 100003Z 04007KT 22/M07 A2977 RMK A01 T02161069  RH  014%=      5-min Rain = 0
KDO1 100004Z 04006KT 22/M07 A2977 RMK A01 T02161069  RH  014%=      5-min Rain = 0
KDO1 100005Z 04006KT 22/M07 A2977 RMK A01 T02161068  RH  014%=      5-min Rain = 0
KDO1 100006Z 04006KT 22/M07 A2977 RMK A01 T02151068  RH  014%=      5-min Rain = 0
KDO1 100007Z 05007KT 21/M07 A2977 RMK A01 T02141068  RH  014%=      5-min Rain = 0
KDO1 100008Z 04006KT 21/M07 A2977 RMK A01 T02131068  RH  014%=      5-min Rain = 0
KDO1 100009Z 05006KT 21/M07 A2977 RMK A01 T02131068  RH  015%=      5-min Rain = 0
KDO1 100010Z 05006KT 21/M07 A2977 RMK A01 T02121068  RH  015%=      5-min Rain = 0
KDO1 100011Z 05006KT 21/M07 A2977 RMK A01 T02121068  RH  015%=      5-min Rain = 0
KDO1 100012Z 05006KT 21/M07 A2977 RMK A01 T02111068  RH  015%=      5-min Rain = 0
KDO1 100013Z 04006KT 21/M07 A2977 RMK A01 T02111067  RH  015%=      5-min Rain = 0
KDO1 100014Z 04006KT 21/M07 A2978 RMK A01 T02101067  RH  015%=      5-min Rain = 0
KDO1 100015Z 04007KT 21/M07 A2978 RMK A01 T02091067  RH  015%=      5-min Rain = 0
KDO1 100016Z 04007KT 21/M07 A2978 RMK A01 T02091067  RH  015%=      5-min Rain = 0
KDO1 100017Z 04008KT 21/M07 A2978 RMK A01 T02081066  RH  015%=      5-min Rain = 0
KDO1 100018Z 04008KT 21/M07 A2978 RMK A01 T02081065  RH  015%=      5-min Rain = 0
KDO1 100019Z 04008KT 21/M06 A2978 RMK A01 T02081064  RH  015%=      5-min Rain = 0
KDO1 100020Z 04008KT 21/M06 A2978 RMK A01 T02071063  RH  016%=      5-min Rain = 0
KDO1 100021Z 04007KT 21/M06 A2978 RMK A01 T02071063  RH  016%=      5-min Rain = 0
KDO1 100022Z 05007KT 21/M06 A2978 RMK A01 T02061062  RH  016%=      5-min Rain = 0
KDO1 100023Z 05007KT 21/M06 A2978 RMK A01 T02051062  RH  016%=      5-min Rain = 0
KDO1 100024Z 05006KT 21/M06 A2978 RMK A01 T02051062  RH  016%=      5-min Rain = 0
KDO1 100025Z 05007KT 20/M06 A2978 RMK A01 T02041062  RH  016%=      5-min Rain = 0
KDO1 100026Z 05006KT 20/M06 A2978 RMK A01 T02031061  RH  016%=      5-min Rain = 0
KDO1 100027Z 05006KT 20/M06 A2978 RMK A01 T02021062  RH  016%=      5-min Rain = 0
KDO1 100028Z 05006KT 20/M06 A2978 RMK A01 T02011061  RH  016%=      5-min Rain = 0
KDO1 100029Z 05006KT 20/M06 A2978 RMK A01 T02011060  RH  017%=      5-min Rain = 0
KDO1 100030Z 05005KT 20/M06 A2978 RMK A01 T01991060  RH  017%=      5-min Rain = 0
KDO1 100031Z 05005KT 20/M06 A2978 RMK A01 T01981060  RH  017%=      5-min Rain = 0
KDO1 100032Z 05005KT 20/M06 A2978 RMK A01 T01981060  RH  017%=      5-min Rain = 0
KDO1 100033Z 05006KT 20/M06 A2978 RMK A01 T01971059  RH  017%=      5-min Rain = 0
KDO1 100034Z 05005KT 20/M06 A2978 RMK A01 T01961060  RH  017%=      5-min Rain = 0
KDO1 100035Z 05005KT 20/M06 A2978 RMK A01 T01951060  RH  017%=      5-min Rain = 0
KDO1 100036Z 05005KT 20/M06 A2978 RMK A01 T01951059  RH  017%=      5-min Rain = 0
KDO1 100037Z 05005KT 19/M06 A2978 RMK A01 T01941059  RH  018%=      5-min Rain = 0
KDO1 100038Z 05006KT 19/M06 A2978 RMK A01 T01931059  RH  018%=      5-min Rain = 0
KDO1 100039Z 05005KT 19/M06 A2978 RMK A01 T01921060  RH  018%=      5-min Rain = 0
KDO1 100040Z 05006KT 19/M06 A2978 RMK A01 T01911059  RH  018%=      5-min Rain = 0
KDO1 100041Z 05006KT 19/M06 A2978 RMK A01 T01911059  RH  018%=      5-min Rain = 0
KDO1 100042Z 05006KT 19/M06 A2978 RMK A01 T01901059  RH  018%=      5-min Rain = 0
KDO1 100043Z 05006KT 19/M06 A2979 RMK A01 T01891059  RH  018%=      5-min Rain = 0
KDO1 100044Z 05007KT 19/M06 A2979 RMK A01 T01881059  RH  018%=      5-min Rain = 0
KDO1 100045Z 05006KT 19/M06 A2979 RMK A01 T01871060  RH  018%=      5-min Rain = 0
KDO1 100046Z 05006KT 19/M06 A2979 RMK A01 T01871059  RH  018%=      5-min Rain = 0
KDO1 100047Z 05006KT 19/M06 A2979 RMK A01 T01861059  RH  018%=      5-min Rain = 0
KDO1 100048Z 05005KT 19/M06 A2979 RMK A01 T01851059  RH  018%=      5-min Rain = 0
KDO1 100049Z 06005KT 18/M06 A2979 RMK A01 T01841060  RH  018%=      5-min Rain = 0
KDO1 100050Z 06005KT 18/M06 A2979 RMK A01 T01841059  RH  019%=      5-min Rain = 0
KDO1 100051Z 05006KT 18/M06 A2979 RMK A01 T01831060  RH  019%=      5-min Rain = 0
KDO1 100052Z 05006KT 18/M06 A2979 RMK A01 T01831060  RH  019%=      5-min Rain = 0
KDO1 100053Z 05006KT 18/M06 A2979 RMK A01 T01821060  RH  019%=      5-min Rain = 0
KDO1 100054Z 05006KT 18/M06 A2979 RMK A01 T01811060  RH  019%=      5-min Rain = 0
KDO1 100055Z 05006KT 18/M06 A2979 RMK A01 T01801060  RH  019%=      5-min Rain = 0
KDO1 100056Z 05006KT 18/M06 A2979 RMK A01 T01801060  RH  019%=      5-min Rain = 0
KDO1 100057Z 05006KT 18/M06 A2979 RMK A01 T01801060  RH  019%=      5-min Rain = 0
KDO1 100058Z 05006KT 18/M06 A2979 RMK A01 T01791060  RH  019%=      5-min Rain = 0
KDO1 100059Z 05006KT 18/M06 A2979 RMK A01 T01791060  RH  019%=      5-min Rain = 0
KDO1 100100Z 05006KT 18/M06 A2979 RMK A01 T01781060  RH  019%=      5-min Rain = 0
KDO1 100101Z 05006KT 18/M06 A2979 RMK A01 T01781060  RH  019%=      5-min Rain = 0
KDO1 100102Z 05007KT 18/M06 A2979 RMK A01 T01771061  RH  019%=      5-min Rain = 0
KDO1 100103Z 05006KT 18/M06 A2979 RMK A01 T01761061  RH  019%=      5-min Rain = 0
KDO1 100104Z 05006KT 18/M06 A2979 RMK A01 T01761060  RH  019%=      5-min Rain = 0
KDO1 100105Z 05006KT 18/M06 A2979 RMK A01 T01751061  RH  019%=      5-min Rain = 0
KDO1 100106Z 05006KT 17/M06 A2979 RMK A01 T01741061  RH  020%=      5-min Rain = 0
KDO1 100107Z 05006KT 17/M06 A2979 RMK A01 T01731061  RH  020%=      5-min Rain = 0
KDO1 100108Z 05006KT 17/M06 A2979 RMK A01 T01731061  RH  020%=      5-min Rain = 0
KDO1 100109Z 05006KT 17/M06 A2979 RMK A01 T01721061  RH  020%=      5-min Rain = 0
KDO1 100110Z 05006KT 17/M06 A2979 RMK A01 T01721061  RH  020%=      5-min Rain = 0
KDO1 100111Z 05006KT 17/M06 A2979 RMK A01 T01711061  RH  020%=      5-min Rain = 0
KDO1 100112Z 05006KT 17/M06 A2979 RMK A01 T01711061  RH  020%=      5-min Rain = 0
KDO1 100113Z 06006KT 17/M06 A2979 RMK A01 T01701061  RH  020%=      5-min Rain = 0
KDO1 100114Z 06006KT 17/M06 A2979 RMK A01 T01691061  RH  020%=      5-min Rain = 0
KDO1 100115Z 05006KT 17/M06 A2979 RMK A01 T01681061  RH  020%=      5-min Rain = 0
KDO1 100116Z 05006KT 17/M06 A2979 RMK A01 T01671061  RH  020%=      5-min Rain = 0
KDO1 100117Z 05006KT 17/M06 A2979 RMK A01 T01661061  RH  020%=      5-min Rain = 0
KDO1 100118Z 05006KT 17/M06 A2979 RMK A01 T01661061  RH  021%=      5-min Rain = 0
KDO1 100119Z 05006KT 17/M06 A2979 RMK A01 T01651061  RH  021%=      5-min Rain = 0
KDO1 100120Z 05006KT 17/M06 A2979 RMK A01 T01651061  RH  021%=      5-min Rain = 0
KDO1 100121Z 04006KT 16/M06 A2979 RMK A01 T01641061  RH  021%=      5-min Rain = 0
KDO1 100122Z 04006KT 16/M06 A2979 RMK A01 T01631061  RH  021%=      5-min Rain = 0
KDO1 100123Z 04005KT 16/M06 A2979 RMK A01 T01631061  RH  021%=      5-min Rain = 0
KDO1 100124Z 04005KT 16/M06 A2979 RMK A01 T01621062  RH  021%=      5-min Rain = 0
KDO1 100125Z 04005KT 16/M06 A2979 RMK A01 T01621062  RH  021%=      5-min Rain = 0
KDO1 100126Z 04005KT 16/M06 A2979 RMK A01 T01621062  RH  021%=      5-min Rain = 0
KDO1 100127Z 04005KT 16/M06 A2979 RMK A01 T01621062  RH  021%=      5-min Rain = 0
KDO1 100128Z 05007KT 16/M06 A2979 RMK A01 T01621061  RH  021%=      5-min Rain = 0
KDO1 100129Z 05006KT 16/M06 A2979 RMK A01 T01611062  RH  021%=      5-min Rain = 0
KDO1 100130Z 05006KT 16/M06 A2979 RMK A01 T01601062  RH  021%=      5-min Rain = 0
KDO1 100131Z 05006KT 16/M06 A2979 RMK A01 T01601062  RH  021%=      5-min Rain = 0
KDO1 100132Z 05007KT 16/M06 A2979 RMK A01 T01591062  RH  021%=      5-min Rain = 0
KDO1 100133Z 05006KT 16/M06 A2979 RMK A01 T01581062  RH  021%=      5-min Rain = 0
KDO1 100134Z 05007KT 16/M06 A2979 RMK A01 T01581061  RH  022%=      5-min Rain = 0
KDO1 100135Z 05007KT 16/M06 A2979 RMK A01 T01581062  RH  022%=      5-min Rain = 0
KDO1 100136Z 05007KT 16/M06 A2979 RMK A01 T01581062  RH  022%=      5-min Rain = 0
KDO1 100137Z 05006KT 16/M06 A2979 RMK A01 T01581062  RH  021%=      5-min Rain = 0
KDO1 100138Z 05007KT 16/M06 A2979 RMK A01 T01581062  RH  021%=      5-min Rain = 0
KDO1 100139Z 05007KT 16/M06 A2979 RMK A01 T01581062  RH  021%=      5-min Rain = 0
KDO1 100140Z 05007KT 16/M06 A2979 RMK A01 T01581062  RH  021%=      5-min Rain = 0
KDO1 100141Z 05007KT 16/M06 A2979 RMK A01 T01581062  RH  021%=      5-min Rain = 0
KDO1 100142Z 04007KT 16/M06 A2979 RMK A01 T01571062  RH  022%=      5-min Rain = 0
KDO1 100143Z 04007KT 16/M06 A2979 RMK A01 T01561062  RH  022%=      5-min Rain = 0
KDO1 100144Z 04007KT 16/M06 A2979 RMK A01 T01561063  RH  022%=      5-min Rain = 0
KDO1 100145Z 04007KT 16/M06 A2979 RMK A01 T01561062  RH  022%=      5-min Rain = 0
KDO1 100146Z 04007KT 16/M06 A2979 RMK A01 T01561062  RH  022%=      5-min Rain = 0
KDO1 100147Z 04007KT 16/M06 A2979 RMK A01 T01561063  RH  022%=      5-min Rain = 0
KDO1 100148Z 04007KT 16/M06 A2979 RMK A01 T01561062  RH  022%=      5-min Rain = 0
KDO1 100149Z 04007KT 16/M06 A2979 RMK A01 T01551063  RH  022%=      5-min Rain = 0
KDO1 100150Z 04007KT 15/M06 A2979 RMK A01 T01541063  RH  022%=      5-min Rain = 0
KDO1 100151Z 04007KT 15/M06 A2979 RMK A01 T01531063  RH  022%=      5-min Rain = 0
KDO1 100152Z 04006KT 15/M06 A2979 RMK A01 T01531063  RH  022%=      5-min Rain = 0
KDO1 100153Z 04006KT 15/M06 A2979 RMK A01 T01521063  RH  022%=      5-min Rain = 0
KDO1 100154Z 04006KT 15/M06 A2979 RMK A01 T01521063  RH  022%=      5-min Rain = 0
KDO1 100155Z 04007KT 15/M06 A2979 RMK A01 T01511064  RH  022%=      5-min Rain = 0
KDO1 100156Z 04007KT 15/M06 A2979 RMK A01 T01511064  RH  022%=      5-min Rain = 0
KDO1 100157Z 04007KT 15/M06 A298 RMK A01 T01511064  RH  022%=      5-min Rain = 0
KDO1 100158Z 04006KT 15/M06 A298 RMK A01 T01501064  RH  022%=      5-min Rain = 0
KDO1 100159Z 04006KT 15/M06 A298 RMK A01 T01491064  RH  022%=      5-min Rain = 0
KDO1 100200Z 03006KT 15/M07 A298 RMK A01 T01481065  RH  022%=      5-min Rain = 0
KDO1 100201Z 04006KT 15/M07 A298 RMK A01 T01481065  RH  022%=      5-min Rain = 0
KDO1 100202Z 03006KT 15/M07 A298 RMK A01 T01471065  RH  023%=      5-min Rain = 0
KDO1 100203Z 04006KT 15/M07 A298 RMK A01 T01461065  RH  023%=      5-min Rain = 0
KDO1 100204Z 04006KT 15/M07 A298 RMK A01 T01461065  RH  023%=      5-min Rain = 0
KDO1 100205Z 04006KT 15/M07 A298 RMK A01 T01451065  RH  023%=      5-min Rain = 0
KDO1 100206Z 04006KT 14/M07 A298 RMK A01 T01441065  RH  023%=      5-min Rain = 0
KDO1 100207Z 04006KT 14/M07 A298 RMK A01 T01421065  RH  023%=      5-min Rain = 0
KDO1 100208Z 04006KT 14/M07 A298 RMK A01 T01411065  RH  023%=      5-min Rain = 0
KDO1 100209Z 04006KT 14/M07 A298 RMK A01 T01411065  RH  023%=      5-min Rain = 0
KDO1 100210Z 04006KT 14/M07 A298 RMK A01 T01411065  RH  024%=      5-min Rain = 0
KDO1 100211Z 04007KT 14/M07 A298 RMK A01 T01401065  RH  024%=      5-min Rain = 0
KDO1 100212Z 04007KT 14/M07 A298 RMK A01 T01391065  RH  024%=      5-min Rain = 0
KDO1 100213Z 04006KT 14/M07 A298 RMK A01 T01391065  RH  024%=      5-min Rain = 0
KDO1 100214Z 04007KT 14/M07 A298 RMK A01 T01391065  RH  024%=      5-min Rain = 0
KDO1 100215Z 04007KT 14/M07 A298 RMK A01 T01391065  RH  024%=      5-min Rain = 0
KDO1 100216Z 04007KT 14/M07 A298 RMK A01 T01391065  RH  024%=      5-min Rain = 0
KDO1 100217Z 04007KT 14/M07 A298 RMK A01 T01391066  RH  024%=      5-min Rain = 0
KDO1 100218Z 04006KT 14/M07 A298 RMK A01 T01391066  RH  024%=      5-min Rain = 0
KDO1 100219Z 04006KT 14/M07 A298 RMK A01 T01391065  RH  024%=      5-min Rain = 0
KDO1 100220Z 04007KT 14/M07 A298 RMK A01 T01391066  RH  024%=      5-min Rain = 0
KDO1 100221Z 04007KT 14/M07 A298 RMK A01 T01391066  RH  024%=      5-min Rain = 0
KDO1 100222Z 04007KT 14/M07 A298 RMK A01 T01381066  RH  024%=      5-min Rain = 0
KDO1 100223Z 04007KT 14/M07 A298 RMK A01 T01381066  RH  024%=      5-min Rain = 0
KDO1 100224Z 04007KT 14/M07 A298 RMK A01 T01381067  RH  024%=      5-min Rain = 0
KDO1 100225Z 04007KT 14/M07 A298 RMK A01 T01381067  RH  024%=      5-min Rain = 0
KDO1 100226Z 04007KT 14/M07 A298 RMK A01 T01371067  RH  024%=      5-min Rain = 0
KDO1 100227Z 04007KT 14/M07 A298 RMK A01 T01371067  RH  024%=      5-min Rain = 0
KDO1 100228Z 03007KT 14/M07 A298 RMK A01 T01361068  RH  024%=      5-min Rain = 0
KDO1 100229Z 04007KT 14/M07 A298 RMK A01 T01361068  RH  024%=      5-min Rain = 0
KDO1 100230Z 03007KT 14/M07 A298 RMK A01 T01351068  RH  024%=      5-min Rain = 0
KDO1 100231Z 03007KT 13/M07 A298 RMK A01 T01341068  RH  024%=      5-min Rain = 0
KDO1 100232Z 03007KT 13/M07 A298 RMK A01 T01341068  RH  024%=      5-min Rain = 0
KDO1 100233Z 03007KT 13/M07 A298 RMK A01 T01341068  RH  024%=      5-min Rain = 0
KDO1 100234Z 03007KT 13/M07 A298 RMK A01 T01341068  RH  024%=      5-min Rain = 0
KDO1 100235Z 03007KT 13/M07 A298 RMK A01 T01331068  RH  024%=      5-min Rain = 0
KDO1 100236Z 03008KT 13/M07 A298 RMK A01 T01331068  RH  024%=      5-min Rain = 0
KDO1 100237Z 03007KT 13/M07 A298 RMK A01 T01331069  RH  024%=      5-min Rain = 0
KDO1 100238Z 03008KT 13/M07 A298 RMK A01 T01341068  RH  024%=      5-min Rain = 0
KDO1 100239Z 04008KT 13/M07 A298 RMK A01 T01341069  RH  024%=      5-min Rain = 0
KDO1 100240Z 03008KT 14/M07 A298 RMK A01 T01351068  RH  024%=      5-min Rain = 0
KDO1 100241Z 03008KT 14/M07 A298 RMK A01 T01361068  RH  024%=      5-min Rain = 0
KDO1 100242Z 03008KT 14/M07 A298 RMK A01 T01361068  RH  024%=      5-min Rain = 0
KDO1 100243Z 03008KT 14/M07 A298 RMK A01 T01361068  RH  024%=      5-min Rain = 0
KDO1 100244Z 03007KT 14/M07 A298 RMK A01 T01351068  RH  024%=      5-min Rain = 0
KDO1 100245Z 03007KT 14/M07 A298 RMK A01 T01351068  RH  024%=      5-min Rain = 0
KDO1 100246Z 03007KT 13/M07 A298 RMK A01 T01341068  RH  024%=      5-min Rain = 0
KDO1 100247Z 03007KT 13/M07 A298 RMK A01 T01341067  RH  024%=      5-min Rain = 0
KDO1 100248Z 03007KT 13/M07 A298 RMK A01 T01331068  RH  024%=      5-min Rain = 0
KDO1 100249Z 03007KT 13/M07 A298 RMK A01 T01321067  RH  024%=      5-min Rain = 0
KDO1 100250Z 03007KT 13/M07 A298 RMK A01 T01321067  RH  024%=      5-min Rain = 0
KDO1 100251Z 03007KT 13/M07 A298 RMK A01 T01331067  RH  024%=      5-min Rain = 0
KDO1 100252Z 03007KT 13/M07 A298 RMK A01 T01321067  RH  024%=      5-min Rain = 0
KDO1 100253Z 03007KT 13/M07 A298 RMK A01 T01311067  RH  025%=      5-min Rain = 0
KDO1 100254Z 03007KT 13/M07 A298 RMK A01 T01311067  RH  025%=      5-min Rain = 0
KDO1 100255Z 03007KT 13/M07 A298 RMK A01 T01311067  RH  025%=      5-min Rain = 0
KDO1 100256Z 03007KT 13/M07 A298 RMK A01 T01311067  RH  025%=      5-min Rain = 0
KDO1 100257Z 03007KT 13/M07 A298 RMK A01 T01311067  RH  025%=      5-min Rain = 0
KDO1 100258Z 03007KT 13/M07 A298 RMK A01 T01311067  RH  025%=      5-min Rain = 0
KDO1 100259Z 03007KT 13/M07 A298 RMK A01 T01311067  RH  025%=      5-min Rain = 0
KDO1 100300Z 03007KT 13/M07 A298 RMK A01 T01311066  RH  025%=      5-min Rain = 0
KDO1 100301Z 03007KT 13/M07 A298 RMK A01 T01311067  RH  025%=      5-min Rain = 0
KDO1 100302Z 03008KT 13/M07 A298 RMK A01 T01311066  RH  025%=      5-min Rain = 0
KDO1 100303Z 03008KT 13/M07 A298 RMK A01 T01311066  RH  025%=      5-min Rain = 0
KDO1 100304Z 03007KT 13/M07 A298 RMK A01 T01311067  RH  025%=      5-min Rain = 0
KDO1 100305Z 03008KT 13/M07 A298 RMK A01 T01311066  RH  025%=      5-min Rain = 0
KDO1 100306Z 03007KT 13/M07 A298 RMK A01 T01311066  RH  025%=      5-min Rain = 0
KDO1 100307Z 03008KT 13/M07 A298 RMK A01 T01311066  RH  025%=      5-min Rain = 0
KDO1 100308Z 03008KT 13/M07 A298 RMK A01 T01311066  RH  025%=      5-min Rain = 0
KDO1 100309Z 03008KT 13/M07 A298 RMK A01 T01311066  RH  025%=      5-min Rain = 0
KDO1 100310Z 03008KT 13/M07 A298 RMK A01 T01311066  RH  025%=      5-min Rain = 0
KDO1 100311Z 03008KT 13/M07 A298 RMK A01 T01321065  RH  025%=      5-min Rain = 0
KDO1 100312Z 03008KT 13/M07 A298 RMK A01 T01321065  RH  025%=      5-min Rain = 0
KDO1 100313Z 03007KT 13/M07 A298 RMK A01 T01321065  RH  025%=      5-min Rain = 0
KDO1 100314Z 03007KT 13/M07 A298 RMK A01 T01331065  RH  025%=      5-min Rain = 0
KDO1 100315Z 03007KT 13/M07 A298 RMK A01 T01331065  RH  025%=      5-min Rain = 0
KDO1 100316Z 03007KT 13/M07 A298 RMK A01 T01331065  RH  025%=      5-min Rain = 0
KDO1 100317Z 03007KT 13/M06 A298 RMK A01 T01341064  RH  025%=      5-min Rain = 0
KDO1 100318Z 03006KT 13/M06 A298 RMK A01 T01341064  RH  025%=      5-min Rain = 0
KDO1 100319Z 03007KT 13/M06 A2981 RMK A01 T01341064  RH  025%=      5-min Rain = 0
KDO1 100320Z 03007KT 13/M06 A2981 RMK A01 T01331063  RH  025%=      5-min Rain = 0
KDO1 100321Z 03007KT 13/M06 A2981 RMK A01 T01321063  RH  025%=      5-min Rain = 0
KDO1 100322Z 03007KT 13/M06 A2981 RMK A01 T01321063  RH  025%=      5-min Rain = 0
KDO1 100323Z 03007KT 13/M06 A2981 RMK A01 T01321063  RH  025%=      5-min Rain = 0
KDO1 100324Z 03007KT 13/M06 A2981 RMK A01 T01311063  RH  025%=      5-min Rain = 0
KDO1 100325Z 03007KT 13/M06 A2981 RMK A01 T01311063  RH  026%=      5-min Rain = 0
KDO1 100326Z 03007KT 13/M06 A298 RMK A01 T01301063  RH  026%=      5-min Rain = 0
KDO1 100327Z 03007KT 13/M06 A298 RMK A01 T01311062  RH  026%=      5-min Rain = 0
KDO1 100328Z 03006KT 13/M06 A298 RMK A01 T01321062  RH  025%=      5-min Rain = 0
KDO1 100329Z 03006KT 13/M06 A298 RMK A01 T01321062  RH  025%=      5-min Rain = 0
KDO1 100330Z 03006KT 13/M06 A298 RMK A01 T01311062  RH  025%=      5-min Rain = 0
KDO1 100331Z 03006KT 13/M06 A298 RMK A01 T01321061  RH  026%=      5-min Rain = 0
KDO1 100332Z 03006KT 13/M06 A298 RMK A01 T01321061  RH  026%=      5-min Rain = 0
KDO1 100333Z 03007KT 13/M06 A298 RMK A01 T01311061  RH  026%=      5-min Rain = 0
KDO1 100334Z 03007KT 13/M06 A298 RMK A01 T01311061  RH  026%=      5-min Rain = 0
KDO1 100335Z 03007KT 13/M06 A298 RMK A01 T01311061  RH  026%=      5-min Rain = 0
KDO1 100336Z 03007KT 13/M06 A298 RMK A01 T01311061  RH  026%=      5-min Rain = 0
KDO1 100337Z 03007KT 13/M06 A298 RMK A01 T01311061  RH  026%=      5-min Rain = 0
KDO1 100338Z 03008KT 13/M06 A298 RMK A01 T01311061  RH  026%=      5-min Rain = 0
KDO1 100339Z 03007KT 13/M06 A2981 RMK A01 T01321061  RH  026%=      5-min Rain = 0
KDO1 100340Z 03007KT 13/M06 A2981 RMK A01 T01321060  RH  026%=      5-min Rain = 0
KDO1 100341Z 03007KT 13/M06 A2981 RMK A01 T01321060  RH  026%=      5-min Rain = 0
KDO1 100342Z 03007KT 13/M06 A2981 RMK A01 T01321060  RH  026%=      5-min Rain = 0
KDO1 100343Z 03007KT 13/M06 A2981 RMK A01 T01311060  RH  026%=      5-min Rain = 0
KDO1 100344Z 03007KT 13/M06 A2981 RMK A01 T01311060  RH  026%=      5-min Rain = 0
KDO1 100345Z 03007KT 13/M06 A2981 RMK A01 T01321060  RH  026%=      5-min Rain = 0
KDO1 100346Z 03007KT 13/M06 A2981 RMK A01 T01321060  RH  026%=      5-min Rain = 0
KDO1 100347Z 03007KT 13/M06 A2981 RMK A01 T01311060  RH  026%=      5-min Rain = 0
KDO1 100348Z 03007KT 13/M06 A2981 RMK A01 T01311060  RH  026%=      5-min Rain = 0
KDO1 100349Z 03007KT 13/M06 A2981 RMK A01 T01301060  RH  026%=      5-min Rain = 0
KDO1 100350Z 03007KT 13/M06 A2981 RMK A01 T01301060  RH  026%=      5-min Rain = 0
KDO1 100351Z 03007KT 13/M06 A2981 RMK A01 T01301059  RH  026%=      5-min Rain = 0
KDO1 100352Z 02007KT 13/M06 A2981 RMK A01 T01291060  RH  026%=      5-min Rain = 0
KDO1 100353Z 02007KT 13/M06 A2981 RMK A01 T01291060  RH  026%=      5-min Rain = 0
KDO1 100354Z 03008KT 13/M06 A2981 RMK A01 T01281060  RH  026%=      5-min Rain = 0
KDO1 100355Z 03008KT 13/M06 A2981 RMK A01 T01281060  RH  027%=      5-min Rain = 0
KDO1 100356Z 03007KT 13/M06 A2981 RMK A01 T01281059  RH  027%=      5-min Rain = 0
KDO1 100357Z 03007KT 13/M06 A2981 RMK A01 T01281059  RH  027%=      5-min Rain = 0
KDO1 100358Z 03006KT 13/M06 A2981 RMK A01 T01291059  RH  027%=      5-min Rain = 0
KDO1 100359Z 02006KT 13/M06 A2981 RMK A01 T01291059  RH  027%=      5-min Rain = 0
KDO1 100400Z 02007KT 13/M06 A2981 RMK A01 T01291059  RH  027%=      5-min Rain = 0
KDO1 100401Z 02007KT 13/M06 A2981 RMK A01 T01291059  RH  027%=      5-min Rain = 0
KDO1 100402Z 02007KT 13/M06 A2981 RMK A01 T01291059  RH  027%=      5-min Rain = 0
KDO1 100403Z 02007KT 13/M06 A2981 RMK A01 T01281059  RH  027%=      5-min Rain = 0
KDO1 100404Z 02007KT 13/M06 A2981 RMK A01 T01281058  RH  027%=      5-min Rain = 0
KDO1 100405Z 02008KT 13/M06 A2981 RMK A01 T01271058  RH  027%=      5-min Rain = 0
KDO1 100406Z 02008KT 13/M06 A2981 RMK A01 T01261059  RH  027%=      5-min Rain = 0
KDO1 100407Z 01008KT 12/M06 A2981 RMK A01 T01241059  RH  027%=      5-min Rain = 0
KDO1 100408Z 02008KT 12/M06 A2981 RMK A01 T01231059  RH  028%=      5-min Rain = 0
KDO1 100409Z 02008KT 12/M06 A2981 RMK A01 T01221059  RH  028%=      5-min Rain = 0
KDO1 100410Z 02008KT 12/M06 A2981 RMK A01 T01221058  RH  028%=      5-min Rain = 0
KDO1 100411Z 02008KT 12/M06 A2981 RMK A01 T01221058  RH  028%=      5-min Rain = 0
KDO1 100412Z 02008KT 12/M06 A2981 RMK A01 T01221057  RH  028%=      5-min Rain = 0
KDO1 100413Z 02008KT 12/M06 A2981 RMK A01 T01221057  RH  028%=      5-min Rain = 0
KDO1 100414Z 02008KT 12/M06 A2981 RMK A01 T01211057  RH  028%=      5-min Rain = 0
KDO1 100415Z 02007KT 12/M06 A2981 RMK A01 T01201058  RH  028%=      5-min Rain = 0
KDO1 100416Z 01008KT 12/M06 A2981 RMK A01 T01191057  RH  029%=      5-min Rain = 0
KDO1 100417Z 01008KT 12/M06 A2981 RMK A01 T01191057  RH  029%=      5-min Rain = 0
KDO1 100418Z 01008KT 12/M06 A2981 RMK A01 T01191057  RH  029%=      5-min Rain = 0
KDO1 100419Z 01008KT 12/M06 A2981 RMK A01 T01181056  RH  029%=      5-min Rain = 0
KDO1 100420Z 01008KT 12/M06 A2981 RMK A01 T01181056  RH  029%=      5-min Rain = 0
KDO1 100421Z 01008KT 12/M06 A2981 RMK A01 T01171057  RH  029%=      5-min Rain = 0
KDO1 100422Z 02008KT 12/M06 A2981 RMK A01 T01181056  RH  029%=      5-min Rain = 0
KDO1 100423Z 02008KT 12/M06 A2981 RMK A01 T01191056  RH  029%=      5-min Rain = 0
KDO1 100424Z 02008KT 12/M06 A2981 RMK A01 T01191057  RH  029%=      5-min Rain = 0
KDO1 100425Z 02008KT 12/M06 A2981 RMK A01 T01181056  RH  029%=      5-min Rain = 0
KDO1 100426Z 02008KT 12/M06 A2981 RMK A01 T01191056  RH  029%=      5-min Rain = 0
KDO1 100427Z 03008KT 12/M06 A2981 RMK A01 T01181056  RH  029%=      5-min Rain = 0
KDO1 100428Z 02008KT 12/M06 A2981 RMK A01 T01181055  RH  029%=      5-min Rain = 0
KDO1 100429Z 02008KT 12/M06 A2981 RMK A01 T01191055  RH  029%=      5-min Rain = 0
KDO1 100430Z 02008KT 12/M06 A298 RMK A01 T01191055  RH  029%=      5-min Rain = 0
KDO1 100431Z 02007KT 12/M06 A298 RMK A01 T01181055  RH  029%=      5-min Rain = 0
KDO1 100432Z 02007KT 12/M06 A298 RMK A01 T01181055  RH  029%=      5-min Rain = 0
KDO1 100433Z 02007KT 12/M06 A298 RMK A01 T01181055  RH  029%=      5-min Rain = 0
KDO1 100434Z 02007KT 12/M06 A298 RMK A01 T01181055  RH  029%=      5-min Rain = 0
KDO1 100435Z 02007KT 12/M06 A298 RMK A01 T01171055  RH  030%=      5-min Rain = 0
KDO1 100436Z 02007KT 12/M05 A298 RMK A01 T01161054  RH  030%=      5-min Rain = 0
KDO1 100437Z 02007KT 12/M05 A298 RMK A01 T01161054  RH  030%=      5-min Rain = 0
KDO1 100438Z 02007KT 12/M05 A298 RMK A01 T01161053  RH  030%=      5-min Rain = 0
KDO1 100439Z 02007KT 12/M05 A298 RMK A01 T01161053  RH  030%=      5-min Rain = 0
KDO1 100440Z 02007KT 12/M05 A298 RMK A01 T01151053  RH  030%=      5-min Rain = 0
KDO1 100441Z 02007KT 12/M05 A298 RMK A01 T01151053  RH  030%=      5-min Rain = 0
KDO1 100442Z 02007KT 12/M05 A298 RMK A01 T01151053  RH  031%=      5-min Rain = 0
KDO1 100443Z 02007KT 11/M05 A298 RMK A01 T01131053  RH  031%=      5-min Rain = 0
KDO1 100444Z 02007KT 11/M05 A298 RMK A01 T01131052  RH  031%=      5-min Rain = 0
KDO1 100445Z 02007KT 11/M05 A298 RMK A01 T01131052  RH  031%=      5-min Rain = 0
KDO1 100446Z 02007KT 11/M05 A298 RMK A01 T01131052  RH  031%=      5-min Rain = 0
KDO1 100447Z 02007KT 11/M05 A298 RMK A01 T01131052  RH  031%=      5-min Rain = 0
KDO1 100448Z 02007KT 11/M05 A298 RMK A01 T01131051  RH  031%=      5-min Rain = 0
KDO1 100449Z 02007KT 11/M05 A298 RMK A01 T01141051  RH  031%=      5-min Rain = 0
KDO1 100450Z 02007KT 11/M05 A298 RMK A01 T01141051  RH  031%=      5-min Rain = 0
KDO1 100451Z 02007KT 11/M05 A298 RMK A01 T01141051  RH  031%=      5-min Rain = 0
KDO1 100452Z 02007KT 11/M05 A298 RMK A01 T01141051  RH  031%=      5-min Rain = 0
KDO1 100453Z 02008KT 11/M05 A298 RMK A01 T01141050  RH  031%=      5-min Rain = 0
KDO1 100454Z 02008KT 11/M05 A298 RMK A01 T01141050  RH  031%=      5-min Rain = 0
KDO1 100455Z 02008KT 11/M05 A298 RMK A01 T01141050  RH  031%=      5-min Rain = 0
KDO1 100456Z 01008KT 11/M05 A298 RMK A01 T01141049  RH  032%=      5-min Rain = 0
KDO1 100457Z 01007KT 11/M05 A298 RMK A01 T01141049  RH  032%=      5-min Rain = 0
KDO1 100458Z 01007KT 11/M05 A298 RMK A01 T01141049  RH  032%=      5-min Rain = 0
KDO1 100459Z 01007KT 11/M05 A298 RMK A01 T01141049  RH  032%=      5-min Rain = 0
KDO1 100500Z 02007KT 11/M05 A2981 RMK A01 T01141048  RH  032%=      5-min Rain = 0
KDO1 100501Z 02008KT 11/M05 A2981 RMK A01 T01141048  RH  032%=      5-min Rain = 0
KDO1 100502Z 01008KT 12/M05 A2981 RMK A01 T01151048  RH  032%=      5-min Rain = 0
KDO1 100503Z 02008KT 12/M05 A2981 RMK A01 T01151048  RH  032%=      5-min Rain = 0
KDO1 100504Z 02008KT 12/M05 A2981 RMK A01 T01151047  RH  032%=      5-min Rain = 0
KDO1 100505Z 02008KT 12/M05 A2981 RMK A01 T01151047  RH  032%=      5-min Rain = 0
KDO1 100506Z 02008KT 12/M05 A2981 RMK A01 T01161047  RH  032%=      5-min Rain = 0
KDO1 100507Z 01008KT 12/M05 A2981 RMK A01 T01161047  RH  032%=      5-min Rain = 0
KDO1 100508Z 01008KT 12/M05 A2981 RMK A01 T01171047  RH  032%=      5-min Rain = 0
KDO1 100509Z 01008KT 12/M05 A2981 RMK A01 T01161047  RH  032%=      5-min Rain = 0
KDO1 100510Z 00008KT 12/M05 A2981 RMK A01 T01161047  RH  032%=      5-min Rain = 0
KDO1 100511Z 00008KT 12/M05 A2981 RMK A01 T01161047  RH  032%=      5-min Rain = 0
KDO1 100512Z 00008KT 12/M05 A2982 RMK A01 T01161047  RH  032%=      5-min Rain = 0
KDO1 100513Z 00008KT 12/M05 A2982 RMK A01 T01161046  RH  032%=      5-min Rain = 0
KDO1 100514Z 00008KT 12/M05 A2982 RMK A01 T01161046  RH  032%=      5-min Rain = 0
KDO1 100515Z 36008KT 12/M05 A2982 RMK A01 T01161046  RH  032%=      5-min Rain = 0
KDO1 100516Z 36008KT 12/M05 A2982 RMK A01 T01161046  RH  032%=      5-min Rain = 0
KDO1 100517Z 00007KT 12/M05 A2982 RMK A01 T01151046  RH  032%=      5-min Rain = 0
KDO1 100518Z 36007KT 12/M05 A2982 RMK A01 T01151046  RH  032%=      5-min Rain = 0
KDO1 100519Z 36007KT 12/M05 A2983 RMK A01 T01151045  RH  032%=      5-min Rain = 0
KDO1 100520Z 36007KT 12/M05 A2983 RMK A01 T01151045  RH  032%=      5-min Rain = 0
KDO1 100521Z 36007KT 12/M05 A2983 RMK A01 T01161045  RH  032%=      5-min Rain = 0
KDO1 100522Z 36007KT 12/M05 A2983 RMK A01 T01161045  RH  032%=      5-min Rain = 0
KDO1 100523Z 36007KT 12/M04 A2983 RMK A01 T01171044  RH  032%=      5-min Rain = 0
KDO1 100524Z 36007KT 12/M04 A2983 RMK A01 T01181044  RH  032%=      5-min Rain = 0
KDO1 100525Z 36007KT 12/M04 A2983 RMK A01 T01191044  RH  032%=      5-min Rain = 0
KDO1 100526Z 36007KT 12/M04 A2983 RMK A01 T01201044  RH  032%=      5-min Rain = 0
KDO1 100527Z 36007KT 12/M04 A2983 RMK A01 T01211044  RH  031%=      5-min Rain = 0
KDO1 100528Z 36007KT 12/M04 A2983 RMK A01 T01211044  RH  031%=      5-min Rain = 0
KDO1 100529Z 36007KT 12/M04 A2983 RMK A01 T01211043  RH  031%=      5-min Rain = 0
KDO1 100530Z 00007KT 12/M04 A2983 RMK A01 T01221043  RH  031%=      5-min Rain = 0
KDO1 100531Z 00007KT 12/M04 A2983 RMK A01 T01221043  RH  031%=      5-min Rain = 0
KDO1 100532Z 36007KT 12/M04 A2983 RMK A01 T01231043  RH  031%=      5-min Rain = 0
KDO1 100533Z 36007KT 12/M04 A2983 RMK A01 T01231043  RH  031%=      5-min Rain = 0
KDO1 100534Z 35007KT 12/M04 A2983 RMK A01 T01241043  RH  031%=      5-min Rain = 0
KDO1 100535Z 36007KT 12/M04 A2983 RMK A01 T01241043  RH  031%=      5-min Rain = 0
KDO1 100536Z 36007KT 13/M04 A2983 RMK A01 T01251043  RH  031%=      5-min Rain = 0
KDO1 100537Z 00008KT 13/M04 A2983 RMK A01 T01261043  RH  031%=      5-min Rain = 0
KDO1 100538Z 00008KT 13/M04 A2983 RMK A01 T01261043  RH  031%=      5-min Rain = 0
KDO1 100539Z 00008KT 13/M04 A2983 RMK A01 T01261043  RH  030%=      5-min Rain = 0
KDO1 100540Z 00008KT 13/M04 A2983 RMK A01 T01271043  RH  030%=      5-min Rain = 0
KDO1 100541Z 00008KT 13/M04 A2982 RMK A01 T01271043  RH  030%=      5-min Rain = 0
KDO1 100542Z 00008KT 13/M04 A2982 RMK A01 T01271043  RH  030%=      5-min Rain = 0
KDO1 100543Z 00008KT 13/M04 A2982 RMK A01 T01271043  RH  030%=      5-min Rain = 0
KDO1 100544Z 00008KT 13/M04 A2982 RMK A01 T01271043  RH  030%=      5-min Rain = 0
KDO1 100545Z 00008KT 13/M04 A2982 RMK A01 T01271044  RH  030%=      5-min Rain = 0
KDO1 100546Z 00007KT 13/M04 A2982 RMK A01 T01261043  RH  030%=      5-min Rain = 0
KDO1 100547Z 00007KT 13/M04 A2982 RMK A01 T01251044  RH  030%=      5-min Rain = 0
KDO1 100548Z 00007KT 13/M04 A2981 RMK A01 T01251044  RH  031%=      5-min Rain = 0
KDO1 100549Z 00005KT 12/M04 A2981 RMK A01 T01231044  RH  031%=      5-min Rain = 0
KDO1 100550Z 01003KT 12/M05 A2981 RMK A01 T01201045  RH  031%=      5-min Rain = 0
KDO1 100551Z 03002KT 12/M05 A2981 RMK A01 T01151047  RH  032%=      5-min Rain = 0
KDO1 100552Z 04002KT 11/M05 A2981 RMK A01 T01091048  RH  033%=      5-min Rain = 0
KDO1 100553Z 03003KT 10/M05 A298 RMK A01 T01041049  RH  034%=      5-min Rain = 0
KDO1 100554Z 05002KT 10/M05 A298 RMK A01 T01011050  RH  034%=      5-min Rain = 0
KDO1 100555Z 06001KT 10/M05 A298 RMK A01 T00971051  RH  035%=      5-min Rain = 0
KDO1 100556Z 06001KT 09/M05 A298 RMK A01 T00931052  RH  035%=      5-min Rain = 0
KDO1 100557Z 04000KT 09/M05 A2979 RMK A01 T00891053  RH  036%=      5-min Rain = 0
KDO1 100558Z 04002KT 09/M05 A2979 RMK A01 T00861054  RH  037%=      5-min Rain = 0
KDO1 100559Z 04001KT 08/M05 A2979 RMK A01 T00841054  RH  037%=      5-min Rain = 0

Page generated in 0.1247 seconds.